﻿<?xml version="1.0" encoding="utf-8"?><gpx creator="Garmin Desktop App" version="1.1" xsi:schemaLocation="http://www.topografix.com/GPX/1/1 http://www.topografix.com/GPX/1/1/gpx.xsd http://www.garmin.com/xmlschemas/WaypointExtension/v1 http://www8.garmin.com/xmlschemas/WaypointExtensionv1.xsd http://www.garmin.com/xmlschemas/TrackPointExtension/v1 http://www.garmin.com/xmlschemas/TrackPointExtensionv1.xsd http://www.garmin.com/xmlschemas/GpxExtensions/v3 http://www8.garmin.com/xmlschemas/GpxExtensionsv3.xsd http://www.garmin.com/xmlschemas/ActivityExtension/v1 http://www8.garmin.com/xmlschemas/ActivityExtensionv1.xsd http://www.garmin.com/xmlschemas/AdventuresExtensions/v1 http://www8.garmin.com/xmlschemas/AdventuresExtensionv1.xsd http://www.garmin.com/xmlschemas/PressureExtension/v1 http://www.garmin.com/xmlschemas/PressureExtensionv1.xsd http://www.garmin.com/xmlschemas/TripExtensions/v1 http://www.garmin.com/xmlschemas/TripExtensionsv1.xsd http://www.garmin.com/xmlschemas/TripMetaDataExtensions/v1 http://www.garmin.com/xmlschemas/TripMetaDataExtensionsv1.xsd http://www.garmin.com/xmlschemas/ViaPointTransportationModeExtensions/v1 http://www.garmin.com/xmlschemas/ViaPointTransportationModeExtensionsv1.xsd http://www.garmin.com/xmlschemas/CreationTimeExtension/v1 http://www.garmin.com/xmlschemas/CreationTimeExtensionsv1.xsd http://www.garmin.com/xmlschemas/AccelerationExtension/v1 http://www.garmin.com/xmlschemas/AccelerationExtensionv1.xsd http://www.garmin.com/xmlschemas/PowerExtension/v1 http://www.garmin.com/xmlschemas/PowerExtensionv1.xsd http://www.garmin.com/xmlschemas/VideoExtension/v1 http://www.garmin.com/xmlschemas/VideoExtensionv1.xsd" xmlns="http://www.topografix.com/GPX/1/1" xmlns:xsi="http://www.w3.org/2001/XMLSchema-instance" xmlns:wptx1="http://www.garmin.com/xmlschemas/WaypointExtension/v1" xmlns:gpxtrx="http://www.garmin.com/xmlschemas/GpxExtensions/v3" xmlns:gpxtpx="http://www.garmin.com/xmlschemas/TrackPointExtension/v1" xmlns:gpxx="http://www.garmin.com/xmlschemas/GpxExtensions/v3" xmlns:trp="http://www.garmin.com/xmlschemas/TripExtensions/v1" xmlns:adv="http://www.garmin.com/xmlschemas/AdventuresExtensions/v1" xmlns:prs="http://www.garmin.com/xmlschemas/PressureExtension/v1" xmlns:tmd="http://www.garmin.com/xmlschemas/TripMetaDataExtensions/v1" xmlns:vptm="http://www.garmin.com/xmlschemas/ViaPointTransportationModeExtensions/v1" xmlns:ctx="http://www.garmin.com/xmlschemas/CreationTimeExtension/v1" xmlns:gpxacc="http://www.garmin.com/xmlschemas/AccelerationExtension/v1" xmlns:gpxpx="http://www.garmin.com/xmlschemas/PowerExtension/v1" xmlns:vidx1="http://www.garmin.com/xmlschemas/VideoExtension/v1">

  <metadata>
    <link href="http://www.garmin.com">
      <text>Garmin International</text>
    </link>
    <time>2023-03-13T09:40:37Z</time>
    <bounds maxlat="51.161812534555793" maxlon="5.105329630896449" minlat="51.134403208270669" minlon="5.034245476126671" />
  </metadata>

  <trk>
    <name>geel parkinglot 20, km via luithoeve ger</name>
    <extensions>
      <gpxx:TrackExtension>
        <gpxx:DisplayColor>Magenta</gpxx:DisplayColor>
      </gpxx:TrackExtension>
    </extensions>
    <trkseg>
      <trkpt lat="51.161812283098698" lon="5.048080142587423">
        <ele>29.460000000000001</ele>
        <time>2022-04-30T11:51:40Z</time>
      </trkpt>
      <trkpt lat="51.161812534555793" lon="5.04807947203517">
        <ele>29.460000000000001</ele>
        <time>2022-04-30T11:51:41Z</time>
      </trkpt>
      <trkpt lat="51.161723518744111" lon="5.04794460721314">
        <ele>27.050000000000001</ele>
        <time>2022-04-30T11:58:57Z</time>
      </trkpt>
      <trkpt lat="51.161723518744111" lon="5.047931615263224">
        <ele>27.050000000000001</ele>
        <time>2022-04-30T11:59:20Z</time>
      </trkpt>
      <trkpt lat="51.161727039143443" lon="5.047820555046201">
        <ele>26.57</ele>
        <time>2022-04-30T11:59:31Z</time>
      </trkpt>
      <trkpt lat="51.161726536229253" lon="5.047807227820158">
        <ele>26.57</ele>
        <time>2022-04-30T11:59:32Z</time>
      </trkpt>
      <trkpt lat="51.161768613383174" lon="5.047503216192126">
        <ele>27.050000000000001</ele>
        <time>2022-04-30T11:59:49Z</time>
      </trkpt>
      <trkpt lat="51.161762746050954" lon="5.047463234513998">
        <ele>27.530000000000001</ele>
        <time>2022-04-30T12:03:48Z</time>
      </trkpt>
      <trkpt lat="51.161751430481672" lon="5.047101974487305">
        <ele>27.050000000000001</ele>
        <time>2022-04-30T12:04:05Z</time>
      </trkpt>
      <trkpt lat="51.1617396119982" lon="5.046785557642579">
        <ele>28.5</ele>
        <time>2022-04-30T12:04:20Z</time>
      </trkpt>
      <trkpt lat="51.161674400791526" lon="5.046503087505698">
        <ele>28.02</ele>
        <time>2022-04-30T12:04:37Z</time>
      </trkpt>
      <trkpt lat="51.161596029996872" lon="5.04625297151506">
        <ele>27.050000000000001</ele>
        <time>2022-04-30T12:04:53Z</time>
      </trkpt>
      <trkpt lat="51.161503829061985" lon="5.045916354283691">
        <ele>27.050000000000001</ele>
        <time>2022-04-30T12:05:07Z</time>
      </trkpt>
      <trkpt lat="51.161393020302057" lon="5.045581245794892">
        <ele>27.530000000000001</ele>
        <time>2022-04-30T12:05:23Z</time>
      </trkpt>
      <trkpt lat="51.16129981353879" lon="5.045269187539816">
        <ele>28.5</ele>
        <time>2022-04-30T12:05:40Z</time>
      </trkpt>
      <trkpt lat="51.161224292591214" lon="5.044964672997594">
        <ele>27.530000000000001</ele>
        <time>2022-04-30T12:05:55Z</time>
      </trkpt>
      <trkpt lat="51.161138126626611" lon="5.044675162062049">
        <ele>27.050000000000001</ele>
        <time>2022-04-30T12:06:11Z</time>
      </trkpt>
      <trkpt lat="51.161031844094396" lon="5.044329157099128">
        <ele>26.57</ele>
        <time>2022-04-30T12:06:29Z</time>
      </trkpt>
      <trkpt lat="51.160980882123113" lon="5.044089267030358">
        <ele>27.530000000000001</ele>
        <time>2022-04-30T12:06:44Z</time>
      </trkpt>
      <trkpt lat="51.160891028121114" lon="5.043802186846733">
        <ele>27.050000000000001</ele>
        <time>2022-04-30T12:07:01Z</time>
      </trkpt>
      <trkpt lat="51.160822128877044" lon="5.04357042722404">
        <ele>26.09</ele>
        <time>2022-04-30T12:10:59Z</time>
      </trkpt>
      <trkpt lat="51.159841194748878" lon="5.04423494450748">
        <ele>26.09</ele>
        <time>2022-04-30T12:11:17Z</time>
      </trkpt>
      <trkpt lat="51.159713706001639" lon="5.044257575646043">
        <ele>26.09</ele>
        <time>2022-04-30T12:11:32Z</time>
      </trkpt>
      <trkpt lat="51.159457303583622" lon="5.044501321390271">
        <ele>26.57</ele>
        <time>2022-04-30T12:11:47Z</time>
      </trkpt>
      <trkpt lat="51.15910392254591" lon="5.04479493945837">
        <ele>27.530000000000001</ele>
        <time>2022-04-30T12:12:01Z</time>
      </trkpt>
      <trkpt lat="51.158826649188995" lon="5.045005409047008">
        <ele>30.420000000000002</ele>
        <time>2022-04-30T12:12:11Z</time>
      </trkpt>
      <trkpt lat="51.158373104408383" lon="5.045357029885054">
        <ele>29.460000000000001</ele>
        <time>2022-04-30T12:12:25Z</time>
      </trkpt>
      <trkpt lat="51.157969515770674" lon="5.045664645731449">
        <ele>27.050000000000001</ele>
        <time>2022-04-30T12:12:38Z</time>
      </trkpt>
      <trkpt lat="51.157512199133635" lon="5.045985421165824">
        <ele>26.09</ele>
        <time>2022-04-30T12:12:53Z</time>
      </trkpt>
      <trkpt lat="51.157142221927643" lon="5.046071251854301">
        <ele>26.09</ele>
        <time>2022-04-30T12:13:06Z</time>
      </trkpt>
      <trkpt lat="51.156775262206793" lon="5.045732455328107">
        <ele>25.609999999999999</ele>
        <time>2022-04-30T12:13:17Z</time>
      </trkpt>
      <trkpt lat="51.156319538131356" lon="5.045291399583221">
        <ele>25.129999999999999</ele>
        <time>2022-04-30T12:13:30Z</time>
      </trkpt>
      <trkpt lat="51.155725261196494" lon="5.044954111799598">
        <ele>25.609999999999999</ele>
        <time>2022-04-30T12:13:43Z</time>
      </trkpt>
      <trkpt lat="51.155374562367797" lon="5.044805584475398">
        <ele>24.649999999999999</ele>
        <time>2022-04-30T12:13:53Z</time>
      </trkpt>
      <trkpt lat="51.155222347006202" lon="5.044733248651028">
        <ele>24.649999999999999</ele>
        <time>2022-04-30T12:14:03Z</time>
      </trkpt>
      <trkpt lat="51.155215809121728" lon="5.044753700494766">
        <ele>24.649999999999999</ele>
        <time>2022-04-30T12:14:04Z</time>
      </trkpt>
      <trkpt lat="51.155211953446269" lon="5.044775912538171">
        <ele>24.649999999999999</ele>
        <time>2022-04-30T12:14:05Z</time>
      </trkpt>
      <trkpt lat="51.155221592634916" lon="5.045167850330472">
        <ele>25.609999999999999</ele>
        <time>2022-04-30T12:14:20Z</time>
      </trkpt>
      <trkpt lat="51.155212540179491" lon="5.045364238321781">
        <ele>26.09</ele>
        <time>2022-04-30T12:14:29Z</time>
      </trkpt>
      <trkpt lat="51.155214216560125" lon="5.045389635488391">
        <ele>26.57</ele>
        <time>2022-04-30T12:14:30Z</time>
      </trkpt>
      <trkpt lat="51.155214635655284" lon="5.045416206121445">
        <ele>26.57</ele>
        <time>2022-04-30T12:14:31Z</time>
      </trkpt>
      <trkpt lat="51.155227292329073" lon="5.045840749517083">
        <ele>28.02</ele>
        <time>2022-04-30T12:14:48Z</time>
      </trkpt>
      <trkpt lat="51.155234836041927" lon="5.04621097818017">
        <ele>28.5</ele>
        <time>2022-04-30T12:15:04Z</time>
      </trkpt>
      <trkpt lat="51.155198458582163" lon="5.046701906248927">
        <ele>28.5</ele>
        <time>2022-04-30T12:15:15Z</time>
      </trkpt>
      <trkpt lat="51.155234249308705" lon="5.047398945316672">
        <ele>28.02</ele>
        <time>2022-04-30T12:15:27Z</time>
      </trkpt>
      <trkpt lat="51.155230728909373" lon="5.04826026968658">
        <ele>26.57</ele>
        <time>2022-04-30T12:15:40Z</time>
      </trkpt>
      <trkpt lat="51.155269872397184" lon="5.048988992348313">
        <ele>25.609999999999999</ele>
        <time>2022-04-30T12:15:53Z</time>
      </trkpt>
      <trkpt lat="51.155242547392845" lon="5.05002424120903">
        <ele>26.09</ele>
        <time>2022-04-30T12:16:06Z</time>
      </trkpt>
      <trkpt lat="51.155206337571144" lon="5.050976257771254">
        <ele>25.129999999999999</ele>
        <time>2022-04-30T12:16:20Z</time>
      </trkpt>
      <trkpt lat="51.15513676777482" lon="5.0510308239609">
        <ele>25.129999999999999</ele>
        <time>2022-04-30T12:16:25Z</time>
      </trkpt>
      <trkpt lat="51.155121512711048" lon="5.051037361845374">
        <ele>25.129999999999999</ele>
        <time>2022-04-30T12:16:26Z</time>
      </trkpt>
      <trkpt lat="51.155023109167814" lon="5.051029566675425">
        <ele>25.129999999999999</ele>
        <time>2022-04-30T12:16:31Z</time>
      </trkpt>
      <trkpt lat="51.155006848275661" lon="5.051025040447712">
        <ele>25.129999999999999</ele>
        <time>2022-04-30T12:16:32Z</time>
      </trkpt>
      <trkpt lat="51.154990838840604" lon="5.051026381552219">
        <ele>25.129999999999999</ele>
        <time>2022-04-30T12:16:33Z</time>
      </trkpt>
      <trkpt lat="51.154973488301039" lon="5.05102688446641">
        <ele>25.129999999999999</ele>
        <time>2022-04-30T12:16:34Z</time>
      </trkpt>
      <trkpt lat="51.154957646504045" lon="5.051029985770583">
        <ele>25.129999999999999</ele>
        <time>2022-04-30T12:16:35Z</time>
      </trkpt>
      <trkpt lat="51.154942139983177" lon="5.051032835617662">
        <ele>25.129999999999999</ele>
        <time>2022-04-30T12:16:36Z</time>
      </trkpt>
      <trkpt lat="51.154926717281342" lon="5.051034260541201">
        <ele>25.129999999999999</ele>
        <time>2022-04-30T12:16:37Z</time>
      </trkpt>
      <trkpt lat="51.154653383418918" lon="5.051041133701801">
        <ele>24.170000000000002</ele>
        <time>2022-04-30T12:16:50Z</time>
      </trkpt>
      <trkpt lat="51.154451631009579" lon="5.051069799810648">
        <ele>23.690000000000001</ele>
        <time>2022-04-30T12:17:02Z</time>
      </trkpt>
      <trkpt lat="51.154215931892395" lon="5.051051443442702">
        <ele>24.170000000000002</ele>
        <time>2022-04-30T12:17:16Z</time>
      </trkpt>
      <trkpt lat="51.153910495340824" lon="5.051057729870081">
        <ele>23.690000000000001</ele>
        <time>2022-04-30T12:17:34Z</time>
      </trkpt>
      <trkpt lat="51.153526687994599" lon="5.051095867529512">
        <ele>23.210000000000001</ele>
        <time>2022-04-30T12:17:47Z</time>
      </trkpt>
      <trkpt lat="51.153083369135857" lon="5.051101818680763">
        <ele>22.73</ele>
        <time>2022-04-30T12:17:59Z</time>
      </trkpt>
      <trkpt lat="51.152582969516516" lon="5.05109972320497">
        <ele>22.73</ele>
        <time>2022-04-30T12:18:14Z</time>
      </trkpt>
      <trkpt lat="51.152276108041406" lon="5.051080863922834">
        <ele>22.73</ele>
        <time>2022-04-30T12:18:26Z</time>
      </trkpt>
      <trkpt lat="51.152020627632737" lon="5.05108455196023">
        <ele>22.73</ele>
        <time>2022-04-30T12:18:43Z</time>
      </trkpt>
      <trkpt lat="51.151854749768972" lon="5.051099136471748">
        <ele>22.25</ele>
        <time>2022-04-30T12:18:56Z</time>
      </trkpt>
      <trkpt lat="51.151666324585676" lon="5.051071140915155">
        <ele>22.73</ele>
        <time>2022-04-30T12:19:11Z</time>
      </trkpt>
      <trkpt lat="51.151597341522574" lon="5.051051778718829">
        <ele>22.73</ele>
        <time>2022-04-30T12:20:17Z</time>
      </trkpt>
      <trkpt lat="51.151367677375674" lon="5.051146661862731">
        <ele>23.210000000000001</ele>
        <time>2022-04-30T12:20:34Z</time>
      </trkpt>
      <trkpt lat="51.151111610233784" lon="5.051158145070076">
        <ele>21.77</ele>
        <time>2022-04-30T12:20:51Z</time>
      </trkpt>
      <trkpt lat="51.150875743478537" lon="5.051162000745535">
        <ele>21.77</ele>
        <time>2022-04-30T12:21:07Z</time>
      </trkpt>
      <trkpt lat="51.150648426264524" lon="5.051175579428673">
        <ele>21.77</ele>
        <time>2022-04-30T12:21:24Z</time>
      </trkpt>
      <trkpt lat="51.15046888589859" lon="5.051130317151547">
        <ele>22.25</ele>
        <time>2022-04-30T12:21:38Z</time>
      </trkpt>
      <trkpt lat="51.150440806522965" lon="5.051121935248375">
        <ele>22.25</ele>
        <time>2022-04-30T12:21:40Z</time>
      </trkpt>
      <trkpt lat="51.150249196216464" lon="5.051131490617991">
        <ele>22.25</ele>
        <time>2022-04-30T12:21:54Z</time>
      </trkpt>
      <trkpt lat="51.150169568136334" lon="5.051157223060727">
        <ele>22.25</ele>
        <time>2022-04-30T12:22:02Z</time>
      </trkpt>
      <trkpt lat="51.150141907855868" lon="5.051157893612981">
        <ele>22.25</ele>
        <time>2022-04-30T12:22:04Z</time>
      </trkpt>
      <trkpt lat="51.149992290884256" lon="5.051178261637688">
        <ele>22.25</ele>
        <time>2022-04-30T12:22:16Z</time>
      </trkpt>
      <trkpt lat="51.14982582628727" lon="5.051183709874749">
        <ele>22.25</ele>
        <time>2022-04-30T12:22:29Z</time>
      </trkpt>
      <trkpt lat="51.149605298414826" lon="5.051191672682762">
        <ele>22.73</ele>
        <time>2022-04-30T12:22:46Z</time>
      </trkpt>
      <trkpt lat="51.149405557662249" lon="5.051214387640357">
        <ele>21.77</ele>
        <time>2022-04-30T12:23:02Z</time>
      </trkpt>
      <trkpt lat="51.149156196042895" lon="5.05121354945004">
        <ele>22.25</ele>
        <time>2022-04-30T12:23:18Z</time>
      </trkpt>
      <trkpt lat="51.14895704202354" lon="5.05120818503201">
        <ele>21.77</ele>
        <time>2022-04-30T12:23:31Z</time>
      </trkpt>
      <trkpt lat="51.148760318756104" lon="5.0512277148664">
        <ele>22.25</ele>
        <time>2022-04-30T12:23:45Z</time>
      </trkpt>
      <trkpt lat="51.148513555526733" lon="5.051226876676083">
        <ele>22.25</ele>
        <time>2022-04-30T12:24:01Z</time>
      </trkpt>
      <trkpt lat="51.14831012673676" lon="5.051244730129838">
        <ele>22.25</ele>
        <time>2022-04-30T12:24:16Z</time>
      </trkpt>
      <trkpt lat="51.148177860304713" lon="5.05123944953084">
        <ele>22.25</ele>
        <time>2022-04-30T12:24:28Z</time>
      </trkpt>
      <trkpt lat="51.148168221116066" lon="5.051119420677424">
        <ele>21.77</ele>
        <time>2022-04-30T12:24:29Z</time>
      </trkpt>
      <trkpt lat="51.148169981315732" lon="5.05109385587275">
        <ele>22.25</ele>
        <time>2022-04-30T12:24:30Z</time>
      </trkpt>
      <trkpt lat="51.148221278563142" lon="5.050612986087799">
        <ele>21.77</ele>
        <time>2022-04-30T12:24:50Z</time>
      </trkpt>
      <trkpt lat="51.148284561932087" lon="5.050102025270462">
        <ele>22.25</ele>
        <time>2022-04-30T12:25:13Z</time>
      </trkpt>
      <trkpt lat="51.148338709026575" lon="5.049671698361635">
        <ele>21.77</ele>
        <time>2022-04-30T12:25:32Z</time>
      </trkpt>
      <trkpt lat="51.148343319073319" lon="5.049599446356297">
        <ele>22.25</ele>
        <time>2022-04-30T12:25:36Z</time>
      </trkpt>
      <trkpt lat="51.148379193618894" lon="5.049227625131607">
        <ele>21.77</ele>
        <time>2022-04-30T12:25:52Z</time>
      </trkpt>
      <trkpt lat="51.148420181125402" lon="5.048939874395728">
        <ele>22.25</ele>
        <time>2022-04-30T12:26:04Z</time>
      </trkpt>
      <trkpt lat="51.14842152222991" lon="5.048641227185726">
        <ele>22.25</ele>
        <time>2022-04-30T12:26:19Z</time>
      </trkpt>
      <trkpt lat="51.148452619090676" lon="5.048210145905614">
        <ele>21.77</ele>
        <time>2022-04-30T12:26:38Z</time>
      </trkpt>
      <trkpt lat="51.148398807272315" lon="5.048100175336003">
        <ele>21.289999999999999</ele>
        <time>2022-04-30T12:26:55Z</time>
      </trkpt>
      <trkpt lat="51.148118516430259" lon="5.048290025442839">
        <ele>22.25</ele>
        <time>2022-04-30T12:27:12Z</time>
      </trkpt>
      <trkpt lat="51.147924475371838" lon="5.048449700698257">
        <ele>22.25</ele>
        <time>2022-04-30T12:27:32Z</time>
      </trkpt>
      <trkpt lat="51.147781647741795" lon="5.048535950481892">
        <ele>22.25</ele>
        <time>2022-04-30T12:27:50Z</time>
      </trkpt>
      <trkpt lat="51.147717023268342" lon="5.048268483951688">
        <ele>22.25</ele>
        <time>2022-04-30T12:27:52Z</time>
      </trkpt>
      <trkpt lat="51.147834286093712" lon="5.048030940815806">
        <ele>21.289999999999999</ele>
        <time>2022-04-30T12:28:09Z</time>
      </trkpt>
      <trkpt lat="51.148028410971165" lon="5.047812759876251">
        <ele>21.289999999999999</ele>
        <time>2022-04-30T12:28:25Z</time>
      </trkpt>
      <trkpt lat="51.148190097883344" lon="5.047507071867585">
        <ele>20.809999999999999</ele>
        <time>2022-04-30T12:28:41Z</time>
      </trkpt>
      <trkpt lat="51.148287076503038" lon="5.047176741063595">
        <ele>21.77</ele>
        <time>2022-04-30T12:28:57Z</time>
      </trkpt>
      <trkpt lat="51.148436022922397" lon="5.0468466617167">
        <ele>21.289999999999999</ele>
        <time>2022-04-30T12:29:14Z</time>
      </trkpt>
      <trkpt lat="51.148621682077646" lon="5.046526053920388">
        <ele>21.77</ele>
        <time>2022-04-30T12:29:30Z</time>
      </trkpt>
      <trkpt lat="51.148757468909025" lon="5.046292115002871">
        <ele>20.809999999999999</ele>
        <time>2022-04-30T12:29:44Z</time>
      </trkpt>
      <trkpt lat="51.148911779746413" lon="5.045980894938111">
        <ele>21.289999999999999</ele>
        <time>2022-04-30T12:30:02Z</time>
      </trkpt>
      <trkpt lat="51.148915467783809" lon="5.045960526913405">
        <ele>21.289999999999999</ele>
        <time>2022-04-30T12:30:03Z</time>
      </trkpt>
      <trkpt lat="51.148918820545077" lon="5.045938901603222">
        <ele>20.809999999999999</ele>
        <time>2022-04-30T12:30:04Z</time>
      </trkpt>
      <trkpt lat="51.149018732830882" lon="5.045621981844306">
        <ele>21.77</ele>
        <time>2022-04-30T12:30:18Z</time>
      </trkpt>
      <trkpt lat="51.149120824411511" lon="5.04523322917521">
        <ele>21.77</ele>
        <time>2022-04-30T12:30:35Z</time>
      </trkpt>
      <trkpt lat="51.1492043081671" lon="5.044795442372561">
        <ele>21.289999999999999</ele>
        <time>2022-04-30T12:30:54Z</time>
      </trkpt>
      <trkpt lat="51.149233058094978" lon="5.044430661946535">
        <ele>21.289999999999999</ele>
        <time>2022-04-30T12:31:10Z</time>
      </trkpt>
      <trkpt lat="51.14928494207561" lon="5.043967310339212">
        <ele>20.809999999999999</ele>
        <time>2022-04-30T12:31:29Z</time>
      </trkpt>
      <trkpt lat="51.149324253201485" lon="5.043579647317529">
        <ele>21.289999999999999</ele>
        <time>2022-04-30T12:31:47Z</time>
      </trkpt>
      <trkpt lat="51.149349398910999" lon="5.043233307078481">
        <ele>20.809999999999999</ele>
        <time>2022-04-30T12:32:03Z</time>
      </trkpt>
      <trkpt lat="51.14938166923821" lon="5.042855534702539">
        <ele>21.289999999999999</ele>
        <time>2022-04-30T12:32:20Z</time>
      </trkpt>
      <trkpt lat="51.149399019777775" lon="5.042551187798381">
        <ele>21.289999999999999</ele>
        <time>2022-04-30T12:32:34Z</time>
      </trkpt>
      <trkpt lat="51.149434307590127" lon="5.042216246947646">
        <ele>21.289999999999999</ele>
        <time>2022-04-30T12:32:50Z</time>
      </trkpt>
      <trkpt lat="51.149431876838207" lon="5.041880803182721">
        <ele>21.289999999999999</ele>
        <time>2022-04-30T12:33:05Z</time>
      </trkpt>
      <trkpt lat="51.14941444247961" lon="5.041469000279903">
        <ele>21.77</ele>
        <time>2022-04-30T12:33:23Z</time>
      </trkpt>
      <trkpt lat="51.149379825219512" lon="5.041098603978753">
        <ele>20.809999999999999</ele>
        <time>2022-04-30T12:33:40Z</time>
      </trkpt>
      <trkpt lat="51.149382758885622" lon="5.041052335873246">
        <ele>21.77</ele>
        <time>2022-04-30T12:33:42Z</time>
      </trkpt>
      <trkpt lat="51.149359038099647" lon="5.040745809674263">
        <ele>21.77</ele>
        <time>2022-04-30T12:33:56Z</time>
      </trkpt>
      <trkpt lat="51.14939047023654" lon="5.040226215496659">
        <ele>21.77</ele>
        <time>2022-04-30T12:34:14Z</time>
      </trkpt>
      <trkpt lat="51.149575123563409" lon="5.040173912420869">
        <ele>21.77</ele>
        <time>2022-04-30T12:34:30Z</time>
      </trkpt>
      <trkpt lat="51.149791963398457" lon="5.040075592696667">
        <ele>21.77</ele>
        <time>2022-04-30T12:34:46Z</time>
      </trkpt>
      <trkpt lat="51.149892965331674" lon="5.039833523333073">
        <ele>21.77</ele>
        <time>2022-04-30T12:35:00Z</time>
      </trkpt>
      <trkpt lat="51.14993043243885" lon="5.039541078731418">
        <ele>21.77</ele>
        <time>2022-04-30T12:35:15Z</time>
      </trkpt>
      <trkpt lat="51.149879554286599" lon="5.039174621924758">
        <ele>21.77</ele>
        <time>2022-04-30T12:35:32Z</time>
      </trkpt>
      <trkpt lat="51.149808308109641" lon="5.038911933079362">
        <ele>21.77</ele>
        <time>2022-04-30T12:35:47Z</time>
      </trkpt>
      <trkpt lat="51.149759357795119" lon="5.038656704127789">
        <ele>21.77</ele>
        <time>2022-04-30T12:36:00Z</time>
      </trkpt>
      <trkpt lat="51.14978140220046" lon="5.038548661395907">
        <ele>21.77</ele>
        <time>2022-04-30T12:36:05Z</time>
      </trkpt>
      <trkpt lat="51.149788107722998" lon="5.038524270057678">
        <ele>21.289999999999999</ele>
        <time>2022-04-30T12:36:06Z</time>
      </trkpt>
      <trkpt lat="51.149795986711979" lon="5.038495352491736">
        <ele>21.289999999999999</ele>
        <time>2022-04-30T12:36:07Z</time>
      </trkpt>
      <trkpt lat="51.149847535416484" lon="5.038257976993918">
        <ele>21.77</ele>
        <time>2022-04-30T12:36:14Z</time>
      </trkpt>
      <trkpt lat="51.149850720539689" lon="5.038227299228311">
        <ele>21.77</ele>
        <time>2022-04-30T12:36:15Z</time>
      </trkpt>
      <trkpt lat="51.149857928976417" lon="5.038200309500098">
        <ele>21.77</ele>
        <time>2022-04-30T12:36:16Z</time>
      </trkpt>
      <trkpt lat="51.149984411895275" lon="5.037777945399284">
        <ele>21.77</ele>
        <time>2022-04-30T12:36:24Z</time>
      </trkpt>
      <trkpt lat="51.15016252733767" lon="5.037138573825359">
        <ele>21.77</ele>
        <time>2022-04-30T12:36:35Z</time>
      </trkpt>
      <trkpt lat="51.150325303897262" lon="5.036507500335574">
        <ele>21.289999999999999</ele>
        <time>2022-04-30T12:36:46Z</time>
      </trkpt>
      <trkpt lat="51.150450445711613" lon="5.035882377997041">
        <ele>21.289999999999999</ele>
        <time>2022-04-30T12:36:58Z</time>
      </trkpt>
      <trkpt lat="51.150345755741" lon="5.035133371129632">
        <ele>20.809999999999999</ele>
        <time>2022-04-30T12:37:11Z</time>
      </trkpt>
      <trkpt lat="51.150242406874895" lon="5.034609166905284">
        <ele>20.809999999999999</ele>
        <time>2022-04-30T12:37:24Z</time>
      </trkpt>
      <trkpt lat="51.150231091305614" lon="5.034595672041178">
        <ele>21.289999999999999</ele>
        <time>2022-04-30T12:37:25Z</time>
      </trkpt>
      <trkpt lat="51.150219105184078" lon="5.034578908234835">
        <ele>20.809999999999999</ele>
        <time>2022-04-30T12:37:26Z</time>
      </trkpt>
      <trkpt lat="51.150123551487923" lon="5.034413868561387">
        <ele>21.77</ele>
        <time>2022-04-30T12:37:41Z</time>
      </trkpt>
      <trkpt lat="51.150076277554035" lon="5.034382184967399">
        <ele>20.809999999999999</ele>
        <time>2022-04-30T12:38:03Z</time>
      </trkpt>
      <trkpt lat="51.150064626708627" lon="5.034373132511973">
        <ele>21.289999999999999</ele>
        <time>2022-04-30T12:38:04Z</time>
      </trkpt>
      <trkpt lat="51.150055155158043" lon="5.034363996237516">
        <ele>21.289999999999999</ele>
        <time>2022-04-30T12:38:05Z</time>
      </trkpt>
      <trkpt lat="51.150038223713636" lon="5.034361816942692">
        <ele>20.809999999999999</ele>
        <time>2022-04-30T12:38:07Z</time>
      </trkpt>
      <trkpt lat="51.149833956733346" lon="5.034427363425493">
        <ele>20.809999999999999</ele>
        <time>2022-04-30T12:38:24Z</time>
      </trkpt>
      <trkpt lat="51.149640250951052" lon="5.034353770315647">
        <ele>20.809999999999999</ele>
        <time>2022-04-30T12:38:40Z</time>
      </trkpt>
      <trkpt lat="51.149420393630862" lon="5.034245476126671">
        <ele>21.77</ele>
        <time>2022-04-30T12:38:56Z</time>
      </trkpt>
      <trkpt lat="51.149183269590139" lon="5.034292666241527">
        <ele>21.289999999999999</ele>
        <time>2022-04-30T12:39:12Z</time>
      </trkpt>
      <trkpt lat="51.148835336789489" lon="5.034444462507963">
        <ele>21.289999999999999</ele>
        <time>2022-04-30T12:39:23Z</time>
      </trkpt>
      <trkpt lat="51.148366956040263" lon="5.034780325368047">
        <ele>20.809999999999999</ele>
        <time>2022-04-30T12:39:36Z</time>
      </trkpt>
      <trkpt lat="51.147863790392876" lon="5.035025244578719">
        <ele>20.809999999999999</ele>
        <time>2022-04-30T12:39:48Z</time>
      </trkpt>
      <trkpt lat="51.147328773513436" lon="5.035356413573027">
        <ele>20.809999999999999</ele>
        <time>2022-04-30T12:40:02Z</time>
      </trkpt>
      <trkpt lat="51.14699475467205" lon="5.035521369427443">
        <ele>20.809999999999999</ele>
        <time>2022-04-30T12:40:10Z</time>
      </trkpt>
      <trkpt lat="51.146528134122491" lon="5.035581383854151">
        <ele>20.32</ele>
        <time>2022-04-30T12:40:22Z</time>
      </trkpt>
      <trkpt lat="51.146254045888782" lon="5.035464204847813">
        <ele>21.289999999999999</ele>
        <time>2022-04-30T12:41:52Z</time>
      </trkpt>
      <trkpt lat="51.146200066432357" lon="5.035456661134958">
        <ele>21.77</ele>
        <time>2022-04-30T12:42:31Z</time>
      </trkpt>
      <trkpt lat="51.146083557978272" lon="5.035315006971359">
        <ele>21.77</ele>
        <time>2022-04-30T12:43:29Z</time>
      </trkpt>
      <trkpt lat="51.14607023075223" lon="5.03530134446919">
        <ele>21.77</ele>
        <time>2022-04-30T12:43:30Z</time>
      </trkpt>
      <trkpt lat="51.145939221605659" lon="5.03521584905684">
        <ele>22.73</ele>
        <time>2022-04-30T12:43:41Z</time>
      </trkpt>
      <trkpt lat="51.145920781418681" lon="5.035215932875872">
        <ele>22.73</ele>
        <time>2022-04-30T12:43:42Z</time>
      </trkpt>
      <trkpt lat="51.145902089774609" lon="5.03521341830492">
        <ele>22.25</ele>
        <time>2022-04-30T12:43:43Z</time>
      </trkpt>
      <trkpt lat="51.145679550245404" lon="5.035203024744988">
        <ele>22.25</ele>
        <time>2022-04-30T12:43:59Z</time>
      </trkpt>
      <trkpt lat="51.145653231069446" lon="5.0352041143924">
        <ele>22.25</ele>
        <time>2022-04-30T12:44:22Z</time>
      </trkpt>
      <trkpt lat="51.145601933822036" lon="5.035251891240478">
        <ele>22.25</ele>
        <time>2022-04-30T12:44:30Z</time>
      </trkpt>
      <trkpt lat="51.145555078983307" lon="5.035511646419764">
        <ele>22.73</ele>
        <time>2022-04-30T12:44:45Z</time>
      </trkpt>
      <trkpt lat="51.145576285198331" lon="5.03562530502677">
        <ele>22.73</ele>
        <time>2022-04-30T12:44:49Z</time>
      </trkpt>
      <trkpt lat="51.145577291026711" lon="5.035650702193379">
        <ele>22.73</ele>
        <time>2022-04-30T12:44:50Z</time>
      </trkpt>
      <trkpt lat="51.14558014087379" lon="5.035672998055816">
        <ele>22.25</ele>
        <time>2022-04-30T12:44:51Z</time>
      </trkpt>
      <trkpt lat="51.145584164187312" lon="5.035693449899554">
        <ele>22.25</ele>
        <time>2022-04-30T12:44:52Z</time>
      </trkpt>
      <trkpt lat="51.14558894187212" lon="5.035718595609069">
        <ele>22.73</ele>
        <time>2022-04-30T12:44:53Z</time>
      </trkpt>
      <trkpt lat="51.145594054833055" lon="5.0357411429286">
        <ele>22.73</ele>
        <time>2022-04-30T12:44:54Z</time>
      </trkpt>
      <trkpt lat="51.145696230232716" lon="5.036109779030085">
        <ele>22.25</ele>
        <time>2022-04-30T12:45:11Z</time>
      </trkpt>
      <trkpt lat="51.145728752017021" lon="5.036375652998686">
        <ele>23.210000000000001</ele>
        <time>2022-04-30T12:45:24Z</time>
      </trkpt>
      <trkpt lat="51.145737888291478" lon="5.036491490900517">
        <ele>23.210000000000001</ele>
        <time>2022-04-30T12:45:28Z</time>
      </trkpt>
      <trkpt lat="51.145731685683131" lon="5.036527449265122">
        <ele>23.210000000000001</ele>
        <time>2022-04-30T12:45:29Z</time>
      </trkpt>
      <trkpt lat="51.145733529701829" lon="5.036554606631398">
        <ele>23.210000000000001</ele>
        <time>2022-04-30T12:45:30Z</time>
      </trkpt>
      <trkpt lat="51.145733529701829" lon="5.036584446206689">
        <ele>23.210000000000001</ele>
        <time>2022-04-30T12:45:31Z</time>
      </trkpt>
      <trkpt lat="51.145733445882797" lon="5.036609591916204">
        <ele>23.210000000000001</ele>
        <time>2022-04-30T12:45:32Z</time>
      </trkpt>
      <trkpt lat="51.145736547186971" lon="5.036639096215367">
        <ele>23.210000000000001</ele>
        <time>2022-04-30T12:45:33Z</time>
      </trkpt>
      <trkpt lat="51.145738391205668" lon="5.036666253581643">
        <ele>23.210000000000001</ele>
        <time>2022-04-30T12:45:34Z</time>
      </trkpt>
      <trkpt lat="51.145739816129208" lon="5.036687627434731">
        <ele>23.210000000000001</ele>
        <time>2022-04-30T12:45:35Z</time>
      </trkpt>
      <trkpt lat="51.145745096728206" lon="5.036707241088152">
        <ele>23.210000000000001</ele>
        <time>2022-04-30T12:45:36Z</time>
      </trkpt>
      <trkpt lat="51.145752808079123" lon="5.036724423989654">
        <ele>23.210000000000001</ele>
        <time>2022-04-30T12:45:37Z</time>
      </trkpt>
      <trkpt lat="51.145760603249073" lon="5.036743115633726">
        <ele>23.690000000000001</ele>
        <time>2022-04-30T12:45:38Z</time>
      </trkpt>
      <trkpt lat="51.145767057314515" lon="5.036761555820704">
        <ele>23.210000000000001</ele>
        <time>2022-04-30T12:45:39Z</time>
      </trkpt>
      <trkpt lat="51.145832436159253" lon="5.03716204315424">
        <ele>23.690000000000001</ele>
        <time>2022-04-30T12:45:51Z</time>
      </trkpt>
      <trkpt lat="51.145915500819683" lon="5.037655988708139">
        <ele>23.690000000000001</ele>
        <time>2022-04-30T12:46:02Z</time>
      </trkpt>
      <trkpt lat="51.145875100046396" lon="5.037689348682761">
        <ele>23.690000000000001</ele>
        <time>2022-04-30T12:46:04Z</time>
      </trkpt>
      <trkpt lat="51.145847691223025" lon="5.037693623453379">
        <ele>23.690000000000001</ele>
        <time>2022-04-30T12:46:05Z</time>
      </trkpt>
      <trkpt lat="51.145247630774975" lon="5.037752548232675">
        <ele>26.09</ele>
        <time>2022-04-30T12:46:20Z</time>
      </trkpt>
      <trkpt lat="51.144880335777998" lon="5.037751961499453">
        <ele>25.129999999999999</ele>
        <time>2022-04-30T12:46:31Z</time>
      </trkpt>
      <trkpt lat="51.144833732396364" lon="5.037767132744193">
        <ele>25.129999999999999</ele>
        <time>2022-04-30T12:46:34Z</time>
      </trkpt>
      <trkpt lat="51.144822165369987" lon="5.037787165492773">
        <ele>25.129999999999999</ele>
        <time>2022-04-30T12:46:35Z</time>
      </trkpt>
      <trkpt lat="51.144101321697235" lon="5.037820860743523">
        <ele>25.129999999999999</ele>
        <time>2022-04-30T12:46:36Z</time>
      </trkpt>
      <trkpt lat="51.143454490229487" lon="5.037583485245705">
        <ele>25.129999999999999</ele>
        <time>2022-04-30T12:46:37Z</time>
      </trkpt>
      <trkpt lat="51.142875133082271" lon="5.03728860989213">
        <ele>25.129999999999999</ele>
        <time>2022-04-30T12:46:38Z</time>
      </trkpt>
      <trkpt lat="51.142470873892307" lon="5.037231110036373">
        <ele>25.129999999999999</ele>
        <time>2022-04-30T12:46:39Z</time>
      </trkpt>
      <trkpt lat="51.142120510339737" lon="5.037353402003646">
        <ele>25.129999999999999</ele>
        <time>2022-04-30T12:46:40Z</time>
      </trkpt>
      <trkpt lat="51.141516761854291" lon="5.03761206753552">
        <ele>25.129999999999999</ele>
        <time>2022-04-30T12:46:41Z</time>
      </trkpt>
      <trkpt lat="51.136469012126327" lon="5.038288068026304">
        <ele>25.129999999999999</ele>
        <time>2022-04-30T12:46:52Z</time>
      </trkpt>
      <trkpt lat="51.134403208270669" lon="5.036979233846068">
        <ele>25.129999999999999</ele>
        <time>2022-04-30T12:47:02Z</time>
      </trkpt>
      <trkpt lat="51.135986968874931" lon="5.038079526275396">
        <ele>25.129999999999999</ele>
        <time>2022-04-30T12:47:03Z</time>
      </trkpt>
      <trkpt lat="51.135847996920347" lon="5.039001535624266">
        <ele>25.129999999999999</ele>
        <time>2022-04-30T12:47:16Z</time>
      </trkpt>
      <trkpt lat="51.136230127885938" lon="5.03916691057384">
        <ele>25.129999999999999</ele>
        <time>2022-04-30T12:47:27Z</time>
      </trkpt>
      <trkpt lat="51.13630648702383" lon="5.040224036201835">
        <ele>25.129999999999999</ele>
        <time>2022-04-30T12:47:29Z</time>
      </trkpt>
      <trkpt lat="51.136592058464885" lon="5.043028788641095">
        <ele>25.609999999999999</ele>
        <time>2022-04-30T12:47:43Z</time>
      </trkpt>
      <trkpt lat="51.136343786492944" lon="5.043375296518207">
        <ele>25.609999999999999</ele>
        <time>2022-04-30T12:47:47Z</time>
      </trkpt>
      <trkpt lat="51.136111440137029" lon="5.044958805665374">
        <ele>26.09</ele>
        <time>2022-04-30T12:47:48Z</time>
      </trkpt>
      <trkpt lat="51.136830104514956" lon="5.044822096824646">
        <ele>26.09</ele>
        <time>2022-04-30T12:48:03Z</time>
      </trkpt>
      <trkpt lat="51.137774158269167" lon="5.045037847012281">
        <ele>26.09</ele>
        <time>2022-04-30T12:48:04Z</time>
      </trkpt>
      <trkpt lat="51.138622993603349" lon="5.044455388560891">
        <ele>25.609999999999999</ele>
        <time>2022-04-30T12:48:19Z</time>
      </trkpt>
      <trkpt lat="51.139638712629676" lon="5.045555764809251">
        <ele>26.09</ele>
        <time>2022-04-30T12:48:32Z</time>
      </trkpt>
      <trkpt lat="51.141147874295712" lon="5.045879390090704">
        <ele>26.09</ele>
        <time>2022-04-30T12:48:44Z</time>
      </trkpt>
      <trkpt lat="51.143074790015817" lon="5.046958057209849">
        <ele>26.57</ele>
        <time>2022-04-30T12:48:47Z</time>
      </trkpt>
      <trkpt lat="51.143721537664533" lon="5.047065932303667">
        <ele>26.57</ele>
        <time>2022-04-30T12:48:53Z</time>
      </trkpt>
      <trkpt lat="51.144031500443816" lon="5.047109099105001">
        <ele>26.57</ele>
        <time>2022-04-30T12:48:54Z</time>
      </trkpt>
      <trkpt lat="51.144193187355995" lon="5.04708755761385">
        <ele>26.57</ele>
        <time>2022-04-30T12:48:55Z</time>
      </trkpt>
      <trkpt lat="51.14406737498939" lon="5.047737741842866">
        <ele>27.050000000000001</ele>
        <time>2022-04-30T12:49:10Z</time>
      </trkpt>
      <trkpt lat="51.143875764682889" lon="5.048404522240162">
        <ele>27.050000000000001</ele>
        <time>2022-04-30T12:49:22Z</time>
      </trkpt>
      <trkpt lat="51.143752718344331" lon="5.048885140568018">
        <ele>27.050000000000001</ele>
        <time>2022-04-30T12:49:31Z</time>
      </trkpt>
      <trkpt lat="51.143736792728305" lon="5.048955213278532">
        <ele>26.57</ele>
        <time>2022-04-30T12:49:32Z</time>
      </trkpt>
      <trkpt lat="51.143683819100261" lon="5.049159396439791">
        <ele>26.57</ele>
        <time>2022-04-30T12:49:35Z</time>
      </trkpt>
      <trkpt lat="51.143609136343002" lon="5.04945108667016">
        <ele>27.050000000000001</ele>
        <time>2022-04-30T12:49:39Z</time>
      </trkpt>
      <trkpt lat="51.143342172726989" lon="5.050308639183641">
        <ele>27.050000000000001</ele>
        <time>2022-04-30T12:49:52Z</time>
      </trkpt>
      <trkpt lat="51.14331778138876" lon="5.050370497629046">
        <ele>26.57</ele>
        <time>2022-04-30T12:49:53Z</time>
      </trkpt>
      <trkpt lat="51.143032712861896" lon="5.051115648820996">
        <ele>27.050000000000001</ele>
        <time>2022-04-30T12:50:06Z</time>
      </trkpt>
      <trkpt lat="51.142889633774757" lon="5.051448326557875">
        <ele>27.050000000000001</ele>
        <time>2022-04-30T12:50:16Z</time>
      </trkpt>
      <trkpt lat="51.142878318205476" lon="5.051489397883415">
        <ele>28.02</ele>
        <time>2022-04-30T12:50:18Z</time>
      </trkpt>
      <trkpt lat="51.142877480015159" lon="5.051531475037336">
        <ele>27.530000000000001</ele>
        <time>2022-04-30T12:50:20Z</time>
      </trkpt>
      <trkpt lat="51.142853340134025" lon="5.051661729812622">
        <ele>27.530000000000001</ele>
        <time>2022-04-30T12:50:33Z</time>
      </trkpt>
      <trkpt lat="51.142729707062244" lon="5.052030449733138">
        <ele>26.57</ele>
        <time>2022-04-30T12:51:04Z</time>
      </trkpt>
      <trkpt lat="51.142680672928691" lon="5.05238575860858">
        <ele>26.09</ele>
        <time>2022-04-30T12:51:21Z</time>
      </trkpt>
      <trkpt lat="51.142633985728025" lon="5.052734781056643">
        <ele>27.530000000000001</ele>
        <time>2022-04-30T12:51:37Z</time>
      </trkpt>
      <trkpt lat="51.142586879432201" lon="5.053066955879331">
        <ele>27.050000000000001</ele>
        <time>2022-04-30T12:51:52Z</time>
      </trkpt>
      <trkpt lat="51.142551340162754" lon="5.053384462371469">
        <ele>27.050000000000001</ele>
        <time>2022-04-30T12:52:07Z</time>
      </trkpt>
      <trkpt lat="51.142511442303658" lon="5.053726444020867">
        <ele>27.530000000000001</ele>
        <time>2022-04-30T12:52:23Z</time>
      </trkpt>
      <trkpt lat="51.142506999894977" lon="5.054016122594476">
        <ele>27.530000000000001</ele>
        <time>2022-04-30T12:52:39Z</time>
      </trkpt>
      <trkpt lat="51.142817633226514" lon="5.054097510874271">
        <ele>27.050000000000001</ele>
        <time>2022-04-30T12:53:22Z</time>
      </trkpt>
      <trkpt lat="51.142919976264238" lon="5.054139336571097">
        <ele>27.530000000000001</ele>
        <time>2022-04-30T12:53:31Z</time>
      </trkpt>
      <trkpt lat="51.143147880211473" lon="5.054193064570427">
        <ele>27.530000000000001</ele>
        <time>2022-04-30T12:53:47Z</time>
      </trkpt>
      <trkpt lat="51.143324822187424" lon="5.054296413436532">
        <ele>27.530000000000001</ele>
        <time>2022-04-30T12:54:02Z</time>
      </trkpt>
      <trkpt lat="51.143475361168385" lon="5.054449634626508">
        <ele>26.09</ele>
        <time>2022-04-30T12:54:17Z</time>
      </trkpt>
      <trkpt lat="51.143615255132318" lon="5.054628252983093">
        <ele>25.129999999999999</ele>
        <time>2022-04-30T12:54:32Z</time>
      </trkpt>
      <trkpt lat="51.143761016428471" lon="5.054839896038175">
        <ele>25.129999999999999</ele>
        <time>2022-04-30T12:54:47Z</time>
      </trkpt>
      <trkpt lat="51.144001744687557" lon="5.055440040305257">
        <ele>24.649999999999999</ele>
        <time>2022-04-30T12:55:19Z</time>
      </trkpt>
      <trkpt lat="51.14400920458138" lon="5.05546459928155">
        <ele>24.649999999999999</ele>
        <time>2022-04-30T12:55:20Z</time>
      </trkpt>
      <trkpt lat="51.144015742465854" lon="5.055490164086223">
        <ele>24.649999999999999</ele>
        <time>2022-04-30T12:55:21Z</time>
      </trkpt>
      <trkpt lat="51.144026219844818" lon="5.055514220148325">
        <ele>24.170000000000002</ele>
        <time>2022-04-30T12:55:22Z</time>
      </trkpt>
      <trkpt lat="51.144038205966353" lon="5.05553643219173">
        <ele>24.170000000000002</ele>
        <time>2022-04-30T12:55:23Z</time>
      </trkpt>
      <trkpt lat="51.144142057746649" lon="5.055860560387373">
        <ele>24.170000000000002</ele>
        <time>2022-04-30T12:55:39Z</time>
      </trkpt>
      <trkpt lat="51.144269127398729" lon="5.056213522329927">
        <ele>23.690000000000001</ele>
        <time>2022-04-30T12:55:56Z</time>
      </trkpt>
      <trkpt lat="51.144318329170346" lon="5.056370347738266">
        <ele>23.690000000000001</ele>
        <time>2022-04-30T12:56:04Z</time>
      </trkpt>
      <trkpt lat="51.144327213987708" lon="5.056394571438432">
        <ele>23.690000000000001</ele>
        <time>2022-04-30T12:56:05Z</time>
      </trkpt>
      <trkpt lat="51.144336182624102" lon="5.056423572823405">
        <ele>23.690000000000001</ele>
        <time>2022-04-30T12:56:06Z</time>
      </trkpt>
      <trkpt lat="51.144403154030442" lon="5.056676203384996">
        <ele>23.690000000000001</ele>
        <time>2022-04-30T12:56:19Z</time>
      </trkpt>
      <trkpt lat="51.144468616694212" lon="5.056917602196336">
        <ele>24.170000000000002</ele>
        <time>2022-04-30T12:56:31Z</time>
      </trkpt>
      <trkpt lat="51.144616138190031" lon="5.057269055396318">
        <ele>24.170000000000002</ele>
        <time>2022-04-30T12:56:49Z</time>
      </trkpt>
      <trkpt lat="51.144675565883517" lon="5.057366034016013">
        <ele>24.649999999999999</ele>
        <time>2022-04-30T12:57:01Z</time>
      </trkpt>
      <trkpt lat="51.144829876720905" lon="5.0573839712888">
        <ele>25.129999999999999</ele>
        <time>2022-04-30T12:57:18Z</time>
      </trkpt>
      <trkpt lat="51.14495862275362" lon="5.057200323790312">
        <ele>24.649999999999999</ele>
        <time>2022-04-30T12:57:32Z</time>
      </trkpt>
      <trkpt lat="51.145185772329569" lon="5.057151457294822">
        <ele>25.129999999999999</ele>
        <time>2022-04-30T12:57:49Z</time>
      </trkpt>
      <trkpt lat="51.145377131178975" lon="5.057085826992989">
        <ele>24.649999999999999</ele>
        <time>2022-04-30T12:58:04Z</time>
      </trkpt>
      <trkpt lat="51.145535549148917" lon="5.057064956054092">
        <ele>24.170000000000002</ele>
        <time>2022-04-30T12:58:18Z</time>
      </trkpt>
      <trkpt lat="51.145747359842062" lon="5.057029584422708">
        <ele>24.649999999999999</ele>
        <time>2022-04-30T12:58:32Z</time>
      </trkpt>
      <trkpt lat="51.145856995135546" lon="5.056995386257768">
        <ele>24.170000000000002</ele>
        <time>2022-04-30T12:58:46Z</time>
      </trkpt>
      <trkpt lat="51.14612597040832" lon="5.05698130466044">
        <ele>24.649999999999999</ele>
        <time>2022-04-30T12:59:03Z</time>
      </trkpt>
      <trkpt lat="51.146413804963231" lon="5.056966887786984">
        <ele>24.649999999999999</ele>
        <time>2022-04-30T12:59:22Z</time>
      </trkpt>
      <trkpt lat="51.146647911518812" lon="5.056901341304183">
        <ele>25.129999999999999</ele>
        <time>2022-04-30T12:59:40Z</time>
      </trkpt>
      <trkpt lat="51.146889477968216" lon="5.056788017973304">
        <ele>24.649999999999999</ele>
        <time>2022-04-30T12:59:58Z</time>
      </trkpt>
      <trkpt lat="51.147014452144504" lon="5.056697158142924">
        <ele>24.170000000000002</ele>
        <time>2022-04-30T13:00:11Z</time>
      </trkpt>
      <trkpt lat="51.147022666409612" lon="5.056685255840421">
        <ele>24.170000000000002</ele>
        <time>2022-04-30T13:00:12Z</time>
      </trkpt>
      <trkpt lat="51.147038340568542" lon="5.056622978299856">
        <ele>24.170000000000002</ele>
        <time>2022-04-30T13:01:22Z</time>
      </trkpt>
      <trkpt lat="51.147052254527807" lon="5.056626750156283">
        <ele>24.170000000000002</ele>
        <time>2022-04-30T13:01:23Z</time>
      </trkpt>
      <trkpt lat="51.147065330296755" lon="5.056633036583662">
        <ele>24.649999999999999</ele>
        <time>2022-04-30T13:01:24Z</time>
      </trkpt>
      <trkpt lat="51.147077064961195" lon="5.056636389344931">
        <ele>24.649999999999999</ele>
        <time>2022-04-30T13:01:25Z</time>
      </trkpt>
      <trkpt lat="51.147169098258018" lon="5.056721465662122">
        <ele>24.170000000000002</ele>
        <time>2022-04-30T13:01:33Z</time>
      </trkpt>
      <trkpt lat="51.147410329431295" lon="5.056932102888823">
        <ele>24.170000000000002</ele>
        <time>2022-04-30T13:01:51Z</time>
      </trkpt>
      <trkpt lat="51.147424075752497" lon="5.056944424286485">
        <ele>24.170000000000002</ele>
        <time>2022-04-30T13:01:52Z</time>
      </trkpt>
      <trkpt lat="51.14750144071877" lon="5.057017095386982">
        <ele>25.129999999999999</ele>
        <time>2022-04-30T13:01:59Z</time>
      </trkpt>
      <trkpt lat="51.147737139835954" lon="5.057219853624702">
        <ele>24.170000000000002</ele>
        <time>2022-04-30T13:02:17Z</time>
      </trkpt>
      <trkpt lat="51.147957248613238" lon="5.057436442002654">
        <ele>24.649999999999999</ele>
        <time>2022-04-30T13:02:36Z</time>
      </trkpt>
      <trkpt lat="51.14808389917016" lon="5.057663172483444">
        <ele>24.649999999999999</ele>
        <time>2022-04-30T13:02:53Z</time>
      </trkpt>
      <trkpt lat="51.148079205304384" lon="5.057682367041707">
        <ele>24.649999999999999</ele>
        <time>2022-04-30T13:02:54Z</time>
      </trkpt>
      <trkpt lat="51.148076690733433" lon="5.057701310142875">
        <ele>24.649999999999999</ele>
        <time>2022-04-30T13:02:55Z</time>
      </trkpt>
      <trkpt lat="51.148012401536107" lon="5.058065168559551">
        <ele>24.649999999999999</ele>
        <time>2022-04-30T13:03:13Z</time>
      </trkpt>
      <trkpt lat="51.148054981604218" lon="5.058385273441672">
        <ele>24.649999999999999</ele>
        <time>2022-04-30T13:03:29Z</time>
      </trkpt>
      <trkpt lat="51.148060178384185" lon="5.058402121067047">
        <ele>24.649999999999999</ele>
        <time>2022-04-30T13:03:30Z</time>
      </trkpt>
      <trkpt lat="51.148160928860307" lon="5.058696661144495">
        <ele>24.649999999999999</ele>
        <time>2022-04-30T13:03:45Z</time>
      </trkpt>
      <trkpt lat="51.148276934400201" lon="5.058972174301744">
        <ele>24.649999999999999</ele>
        <time>2022-04-30T13:04:00Z</time>
      </trkpt>
      <trkpt lat="51.148465694859624" lon="5.059251459315419">
        <ele>24.649999999999999</ele>
        <time>2022-04-30T13:04:19Z</time>
      </trkpt>
      <trkpt lat="51.148494025692344" lon="5.059303594753146">
        <ele>24.649999999999999</ele>
        <time>2022-04-30T13:04:23Z</time>
      </trkpt>
      <trkpt lat="51.148500815033913" lon="5.059317843988538">
        <ele>24.649999999999999</ele>
        <time>2022-04-30T13:04:24Z</time>
      </trkpt>
      <trkpt lat="51.14861011505127" lon="5.059501910582185">
        <ele>24.649999999999999</ele>
        <time>2022-04-30T13:04:40Z</time>
      </trkpt>
      <trkpt lat="51.148770796135068" lon="5.059776250272989">
        <ele>25.129999999999999</ele>
        <time>2022-04-30T13:04:57Z</time>
      </trkpt>
      <trkpt lat="51.149010434746742" lon="5.060045644640923">
        <ele>25.129999999999999</ele>
        <time>2022-04-30T13:05:17Z</time>
      </trkpt>
      <trkpt lat="51.149191316217184" lon="5.060302801430225">
        <ele>26.09</ele>
        <time>2022-04-30T13:05:36Z</time>
      </trkpt>
      <trkpt lat="51.149284522980452" lon="5.060519305989146">
        <ele>25.129999999999999</ele>
        <time>2022-04-30T13:05:50Z</time>
      </trkpt>
      <trkpt lat="51.149416957050562" lon="5.060791466385126">
        <ele>25.129999999999999</ele>
        <time>2022-04-30T13:06:07Z</time>
      </trkpt>
      <trkpt lat="51.14948770031333" lon="5.061106290668249">
        <ele>26.09</ele>
        <time>2022-04-30T13:06:23Z</time>
      </trkpt>
      <trkpt lat="51.149544529616833" lon="5.061444584280253">
        <ele>25.609999999999999</ele>
        <time>2022-04-30T13:06:38Z</time>
      </trkpt>
      <trkpt lat="51.149566490203142" lon="5.061784302815795">
        <ele>25.129999999999999</ele>
        <time>2022-04-30T13:06:54Z</time>
      </trkpt>
      <trkpt lat="51.149572608992457" lon="5.06204011850059">
        <ele>25.129999999999999</ele>
        <time>2022-04-30T13:07:06Z</time>
      </trkpt>
      <trkpt lat="51.14965776912868" lon="5.06271536462009">
        <ele>25.609999999999999</ele>
        <time>2022-04-30T13:07:37Z</time>
      </trkpt>
      <trkpt lat="51.149663385003805" lon="5.062792310491204">
        <ele>25.129999999999999</ele>
        <time>2022-04-30T13:07:48Z</time>
      </trkpt>
      <trkpt lat="51.149664474651217" lon="5.062809241935611">
        <ele>25.129999999999999</ele>
        <time>2022-04-30T13:07:49Z</time>
      </trkpt>
      <trkpt lat="51.149664893746376" lon="5.062826341018081">
        <ele>25.129999999999999</ele>
        <time>2022-04-30T13:07:50Z</time>
      </trkpt>
      <trkpt lat="51.14966950379312" lon="5.063209226354957">
        <ele>25.609999999999999</ele>
        <time>2022-04-30T13:08:08Z</time>
      </trkpt>
      <trkpt lat="51.149675957858562" lon="5.063582472503185">
        <ele>25.609999999999999</ele>
        <time>2022-04-30T13:08:27Z</time>
      </trkpt>
      <trkpt lat="51.14971979521215" lon="5.063887741416693">
        <ele>25.129999999999999</ele>
        <time>2022-04-30T13:08:42Z</time>
      </trkpt>
      <trkpt lat="51.149769499897957" lon="5.064014978706837">
        <ele>25.129999999999999</ele>
        <time>2022-04-30T13:08:49Z</time>
      </trkpt>
      <trkpt lat="51.149816103279591" lon="5.064111286774278">
        <ele>25.129999999999999</ele>
        <time>2022-04-30T13:08:55Z</time>
      </trkpt>
      <trkpt lat="51.149867651984096" lon="5.064233997836709">
        <ele>25.609999999999999</ele>
        <time>2022-04-30T13:09:02Z</time>
      </trkpt>
      <trkpt lat="51.14990646019578" lon="5.064304238185287">
        <ele>25.129999999999999</ele>
        <time>2022-04-30T13:09:06Z</time>
      </trkpt>
      <trkpt lat="51.149994973093271" lon="5.064631216228008">
        <ele>25.609999999999999</ele>
        <time>2022-04-30T13:09:23Z</time>
      </trkpt>
      <trkpt lat="51.150002349168062" lon="5.064661391079426">
        <ele>25.609999999999999</ele>
        <time>2022-04-30T13:09:24Z</time>
      </trkpt>
      <trkpt lat="51.150062866508961" lon="5.064828945323825">
        <ele>26.09</ele>
        <time>2022-04-30T13:09:32Z</time>
      </trkpt>
      <trkpt lat="51.150128245353699" lon="5.065074199810624">
        <ele>26.09</ele>
        <time>2022-04-30T13:09:43Z</time>
      </trkpt>
      <trkpt lat="51.150237042456865" lon="5.065403273329139">
        <ele>26.57</ele>
        <time>2022-04-30T13:09:59Z</time>
      </trkpt>
      <trkpt lat="51.150315329432487" lon="5.065830079838634">
        <ele>26.57</ele>
        <time>2022-04-30T13:10:17Z</time>
      </trkpt>
      <trkpt lat="51.150315497070551" lon="5.065993526950479">
        <ele>26.57</ele>
        <time>2022-04-30T13:10:35Z</time>
      </trkpt>
      <trkpt lat="51.150374338030815" lon="5.066237524151802">
        <ele>25.609999999999999</ele>
        <time>2022-04-30T13:10:49Z</time>
      </trkpt>
      <trkpt lat="51.150375427678227" lon="5.066264849156141">
        <ele>26.09</ele>
        <time>2022-04-30T13:10:50Z</time>
      </trkpt>
      <trkpt lat="51.150386407971382" lon="5.066304327920079">
        <ele>26.09</ele>
        <time>2022-04-30T13:10:51Z</time>
      </trkpt>
      <trkpt lat="51.150403339415789" lon="5.06634883582592">
        <ele>25.609999999999999</ele>
        <time>2022-04-30T13:10:52Z</time>
      </trkpt>
      <trkpt lat="51.150418343022466" lon="5.066392505541444">
        <ele>25.609999999999999</ele>
        <time>2022-04-30T13:10:53Z</time>
      </trkpt>
      <trkpt lat="51.150435023009777" lon="5.066444221884012">
        <ele>25.609999999999999</ele>
        <time>2022-04-30T13:10:54Z</time>
      </trkpt>
      <trkpt lat="51.150451200082898" lon="5.066503901034594">
        <ele>25.609999999999999</ele>
        <time>2022-04-30T13:10:55Z</time>
      </trkpt>
      <trkpt lat="51.1504683829844" lon="5.066566681489348">
        <ele>25.609999999999999</ele>
        <time>2022-04-30T13:10:56Z</time>
      </trkpt>
      <trkpt lat="51.150483386591077" lon="5.066626779735088">
        <ele>25.609999999999999</ele>
        <time>2022-04-30T13:10:57Z</time>
      </trkpt>
      <trkpt lat="51.150666950270534" lon="5.06742725148797">
        <ele>26.57</ele>
        <time>2022-04-30T13:11:11Z</time>
      </trkpt>
      <trkpt lat="51.15084464661777" lon="5.068225124850869">
        <ele>26.09</ele>
        <time>2022-04-30T13:11:23Z</time>
      </trkpt>
      <trkpt lat="51.150917736813426" lon="5.068564340472221">
        <ele>26.09</ele>
        <time>2022-04-30T13:11:28Z</time>
      </trkpt>
      <trkpt lat="51.150927795097232" lon="5.068637765944004">
        <ele>25.609999999999999</ele>
        <time>2022-04-30T13:11:29Z</time>
      </trkpt>
      <trkpt lat="51.15093844011426" lon="5.068707671016455">
        <ele>26.09</ele>
        <time>2022-04-30T13:11:30Z</time>
      </trkpt>
      <trkpt lat="51.150950258597732" lon="5.06877145729959">
        <ele>26.09</ele>
        <time>2022-04-30T13:11:31Z</time>
      </trkpt>
      <trkpt lat="51.150961993262172" lon="5.068828705698252">
        <ele>26.09</ele>
        <time>2022-04-30T13:11:32Z</time>
      </trkpt>
      <trkpt lat="51.150975236669183" lon="5.068882601335645">
        <ele>27.050000000000001</ele>
        <time>2022-04-30T13:11:33Z</time>
      </trkpt>
      <trkpt lat="51.151094259694219" lon="5.069223241880536">
        <ele>26.09</ele>
        <time>2022-04-30T13:11:38Z</time>
      </trkpt>
      <trkpt lat="51.151119405403733" lon="5.06928451359272">
        <ele>26.09</ele>
        <time>2022-04-30T13:11:39Z</time>
      </trkpt>
      <trkpt lat="51.151134073734283" lon="5.069345533847809">
        <ele>26.09</ele>
        <time>2022-04-30T13:11:40Z</time>
      </trkpt>
      <trkpt lat="51.151145221665502" lon="5.069398172199726">
        <ele>26.57</ele>
        <time>2022-04-30T13:11:41Z</time>
      </trkpt>
      <trkpt lat="51.151159973815084" lon="5.069450978189707">
        <ele>26.57</ele>
        <time>2022-04-30T13:11:42Z</time>
      </trkpt>
      <trkpt lat="51.151176989078522" lon="5.069497916847467">
        <ele>27.530000000000001</ele>
        <time>2022-04-30T13:11:43Z</time>
      </trkpt>
      <trkpt lat="51.151194339618087" lon="5.069549800828099">
        <ele>27.050000000000001</ele>
        <time>2022-04-30T13:11:44Z</time>
      </trkpt>
      <trkpt lat="51.151391817256808" lon="5.070137623697519">
        <ele>26.57</ele>
        <time>2022-04-30T13:11:55Z</time>
      </trkpt>
      <trkpt lat="51.151598934084177" lon="5.070882020518184">
        <ele>26.57</ele>
        <time>2022-04-30T13:12:07Z</time>
      </trkpt>
      <trkpt lat="51.151816779747605" lon="5.07151267491281">
        <ele>28.5</ele>
        <time>2022-04-30T13:12:18Z</time>
      </trkpt>
      <trkpt lat="51.152147194370627" lon="5.072253299877048">
        <ele>28.02</ele>
        <time>2022-04-30T13:12:32Z</time>
      </trkpt>
      <trkpt lat="51.152500407770276" lon="5.072515569627285">
        <ele>28.5</ele>
        <time>2022-04-30T13:12:41Z</time>
      </trkpt>
      <trkpt lat="51.153166266158223" lon="5.072669209912419">
        <ele>29.460000000000001</ele>
        <time>2022-04-30T13:12:47Z</time>
      </trkpt>
      <trkpt lat="51.153474720194936" lon="5.073075229302049">
        <ele>28.5</ele>
        <time>2022-04-30T13:14:43Z</time>
      </trkpt>
      <trkpt lat="51.153317056596279" lon="5.073525924235582">
        <ele>27.050000000000001</ele>
        <time>2022-04-30T13:14:59Z</time>
      </trkpt>
      <trkpt lat="51.153189316391945" lon="5.073856087401509">
        <ele>27.050000000000001</ele>
        <time>2022-04-30T13:15:05Z</time>
      </trkpt>
      <trkpt lat="51.153161823749542" lon="5.073906630277634">
        <ele>27.050000000000001</ele>
        <time>2022-04-30T13:15:06Z</time>
      </trkpt>
      <trkpt lat="51.153130391612649" lon="5.073951473459601">
        <ele>27.530000000000001</ele>
        <time>2022-04-30T13:15:07Z</time>
      </trkpt>
      <trkpt lat="51.153095439076424" lon="5.073989862576127">
        <ele>27.050000000000001</ele>
        <time>2022-04-30T13:15:08Z</time>
      </trkpt>
      <trkpt lat="51.153060486540198" lon="5.074025904759765">
        <ele>27.050000000000001</ele>
        <time>2022-04-30T13:15:09Z</time>
      </trkpt>
      <trkpt lat="51.152702663093805" lon="5.074403174221516">
        <ele>26.09</ele>
        <time>2022-04-30T13:15:18Z</time>
      </trkpt>
      <trkpt lat="51.15266821347177" lon="5.074446257203817">
        <ele>26.57</ele>
        <time>2022-04-30T13:15:19Z</time>
      </trkpt>
      <trkpt lat="51.152333188802004" lon="5.074757812544704">
        <ele>25.609999999999999</ele>
        <time>2022-04-30T13:15:31Z</time>
      </trkpt>
      <trkpt lat="51.152123138308525" lon="5.074891084805131">
        <ele>26.09</ele>
        <time>2022-04-30T13:15:44Z</time>
      </trkpt>
      <trkpt lat="51.151851061731577" lon="5.075097782537341">
        <ele>26.09</ele>
        <time>2022-04-30T13:15:58Z</time>
      </trkpt>
      <trkpt lat="51.15164453163743" lon="5.075236922129989">
        <ele>25.609999999999999</ele>
        <time>2022-04-30T13:16:14Z</time>
      </trkpt>
      <trkpt lat="51.151633383706212" lon="5.075241196900606">
        <ele>25.609999999999999</ele>
        <time>2022-04-30T13:16:15Z</time>
      </trkpt>
      <trkpt lat="51.151619050651789" lon="5.075250081717968">
        <ele>25.609999999999999</ele>
        <time>2022-04-30T13:16:16Z</time>
      </trkpt>
      <trkpt lat="51.151603879407048" lon="5.075254021212459">
        <ele>26.09</ele>
        <time>2022-04-30T13:16:17Z</time>
      </trkpt>
      <trkpt lat="51.151587869971991" lon="5.075263073667884">
        <ele>25.129999999999999</ele>
        <time>2022-04-30T13:16:18Z</time>
      </trkpt>
      <trkpt lat="51.151569178327918" lon="5.075274808332324">
        <ele>25.129999999999999</ele>
        <time>2022-04-30T13:16:19Z</time>
      </trkpt>
      <trkpt lat="51.151552833616734" lon="5.075282352045178">
        <ele>25.129999999999999</ele>
        <time>2022-04-30T13:16:20Z</time>
      </trkpt>
      <trkpt lat="51.151283690705895" lon="5.075484523549676">
        <ele>25.129999999999999</ele>
        <time>2022-04-30T13:16:36Z</time>
      </trkpt>
      <trkpt lat="51.151026533916593" lon="5.075649144127965">
        <ele>25.129999999999999</ele>
        <time>2022-04-30T13:16:54Z</time>
      </trkpt>
      <trkpt lat="51.150808604434133" lon="5.075830444693565">
        <ele>25.609999999999999</ele>
        <time>2022-04-30T13:17:11Z</time>
      </trkpt>
      <trkpt lat="51.150577096268535" lon="5.075982995331287">
        <ele>25.609999999999999</ele>
        <time>2022-04-30T13:17:28Z</time>
      </trkpt>
      <trkpt lat="51.150318430736661" lon="5.076221795752645">
        <ele>25.609999999999999</ele>
        <time>2022-04-30T13:17:46Z</time>
      </trkpt>
      <trkpt lat="51.150067141279578" lon="5.076383734121919">
        <ele>26.09</ele>
        <time>2022-04-30T13:18:04Z</time>
      </trkpt>
      <trkpt lat="51.149853738024831" lon="5.076555227860808">
        <ele>27.050000000000001</ele>
        <time>2022-04-30T13:18:22Z</time>
      </trkpt>
      <trkpt lat="51.149832364171743" lon="5.076556652784348">
        <ele>26.09</ele>
        <time>2022-04-30T13:18:32Z</time>
      </trkpt>
      <trkpt lat="51.149817360565066" lon="5.076568555086851">
        <ele>26.09</ele>
        <time>2022-04-30T13:18:33Z</time>
      </trkpt>
      <trkpt lat="51.149571854621172" lon="5.076743233948946">
        <ele>26.09</ele>
        <time>2022-04-30T13:18:51Z</time>
      </trkpt>
      <trkpt lat="51.149315955117345" lon="5.076928222551942">
        <ele>26.09</ele>
        <time>2022-04-30T13:19:09Z</time>
      </trkpt>
      <trkpt lat="51.149076065048575" lon="5.077090412378311">
        <ele>26.09</ele>
        <time>2022-04-30T13:19:26Z</time>
      </trkpt>
      <trkpt lat="51.148987384513021" lon="5.077169872820377">
        <ele>26.57</ele>
        <time>2022-04-30T13:19:39Z</time>
      </trkpt>
      <trkpt lat="51.148707177489996" lon="5.07737472653389">
        <ele>26.57</ele>
        <time>2022-04-30T13:19:59Z</time>
      </trkpt>
      <trkpt lat="51.148492684587836" lon="5.077548231929541">
        <ele>26.57</ele>
        <time>2022-04-30T13:20:14Z</time>
      </trkpt>
      <trkpt lat="51.148481201380491" lon="5.077563570812345">
        <ele>26.09</ele>
        <time>2022-04-30T13:20:15Z</time>
      </trkpt>
      <trkpt lat="51.148466365411878" lon="5.07757605984807">
        <ele>25.609999999999999</ele>
        <time>2022-04-30T13:20:16Z</time>
      </trkpt>
      <trkpt lat="51.148111810907722" lon="5.077848639339209">
        <ele>26.09</ele>
        <time>2022-04-30T13:20:29Z</time>
      </trkpt>
      <trkpt lat="51.14759230054915" lon="5.078236050903797">
        <ele>26.09</ele>
        <time>2022-04-30T13:20:44Z</time>
      </trkpt>
      <trkpt lat="51.147123081609607" lon="5.078583816066384">
        <ele>26.57</ele>
        <time>2022-04-30T13:20:56Z</time>
      </trkpt>
      <trkpt lat="51.146443728357553" lon="5.079109193757176">
        <ele>26.57</ele>
        <time>2022-04-30T13:21:13Z</time>
      </trkpt>
      <trkpt lat="51.146285897120833" lon="5.07921053096652">
        <ele>26.57</ele>
        <time>2022-04-30T13:21:23Z</time>
      </trkpt>
      <trkpt lat="51.146070482209325" lon="5.079380599781871">
        <ele>28.02</ele>
        <time>2022-04-30T13:21:41Z</time>
      </trkpt>
      <trkpt lat="51.145943999290466" lon="5.079461317509413">
        <ele>28.02</ele>
        <time>2022-04-30T13:21:52Z</time>
      </trkpt>
      <trkpt lat="51.145930420607328" lon="5.079471291974187">
        <ele>28.02</ele>
        <time>2022-04-30T13:21:53Z</time>
      </trkpt>
      <trkpt lat="51.145687680691481" lon="5.079605234786868">
        <ele>28.02</ele>
        <time>2022-04-30T13:22:12Z</time>
      </trkpt>
      <trkpt lat="51.145460195839405" lon="5.079795755445957">
        <ele>27.050000000000001</ele>
        <time>2022-04-30T13:22:32Z</time>
      </trkpt>
      <trkpt lat="51.145276296883821" lon="5.079959705471993">
        <ele>27.530000000000001</ele>
        <time>2022-04-30T13:22:50Z</time>
      </trkpt>
      <trkpt lat="51.145059708505869" lon="5.080125918611884">
        <ele>27.530000000000001</ele>
        <time>2022-04-30T13:23:08Z</time>
      </trkpt>
      <trkpt lat="51.144845215603709" lon="5.080266315490007">
        <ele>27.530000000000001</ele>
        <time>2022-04-30T13:23:25Z</time>
      </trkpt>
      <trkpt lat="51.144623598083854" lon="5.080445185303688">
        <ele>27.050000000000001</ele>
        <time>2022-04-30T13:23:45Z</time>
      </trkpt>
      <trkpt lat="51.144390664994717" lon="5.080614583566785">
        <ele>27.050000000000001</ele>
        <time>2022-04-30T13:24:05Z</time>
      </trkpt>
      <trkpt lat="51.144150104373693" lon="5.08077803067863">
        <ele>27.530000000000001</ele>
        <time>2022-04-30T13:24:25Z</time>
      </trkpt>
      <trkpt lat="51.143932426348329" lon="5.080937286838889">
        <ele>27.530000000000001</ele>
        <time>2022-04-30T13:24:43Z</time>
      </trkpt>
      <trkpt lat="51.143733104690909" lon="5.08115379139781">
        <ele>27.530000000000001</ele>
        <time>2022-04-30T13:25:02Z</time>
      </trkpt>
      <trkpt lat="51.143733104690909" lon="5.081174075603485">
        <ele>27.530000000000001</ele>
        <time>2022-04-30T13:25:03Z</time>
      </trkpt>
      <trkpt lat="51.143861683085561" lon="5.081435507163405">
        <ele>27.530000000000001</ele>
        <time>2022-04-30T13:25:18Z</time>
      </trkpt>
      <trkpt lat="51.143996044993401" lon="5.081736752763391">
        <ele>27.530000000000001</ele>
        <time>2022-04-30T13:25:37Z</time>
      </trkpt>
      <trkpt lat="51.143964361399412" lon="5.082143694162369">
        <ele>27.530000000000001</ele>
        <time>2022-04-30T13:25:55Z</time>
      </trkpt>
      <trkpt lat="51.143928654491901" lon="5.082490704953671">
        <ele>27.530000000000001</ele>
        <time>2022-04-30T13:26:10Z</time>
      </trkpt>
      <trkpt lat="51.143901497125626" lon="5.082888258621097">
        <ele>28.02</ele>
        <time>2022-04-30T13:26:27Z</time>
      </trkpt>
      <trkpt lat="51.143872998654842" lon="5.08326468989253">
        <ele>28.02</ele>
        <time>2022-04-30T13:26:44Z</time>
      </trkpt>
      <trkpt lat="51.143809799104929" lon="5.083911018446088">
        <ele>28.02</ele>
        <time>2022-04-30T13:26:58Z</time>
      </trkpt>
      <trkpt lat="51.143724136054516" lon="5.084366910159588">
        <ele>28.02</ele>
        <time>2022-04-30T13:27:11Z</time>
      </trkpt>
      <trkpt lat="51.143676191568375" lon="5.0847461912781">
        <ele>28.98</ele>
        <time>2022-04-30T13:27:30Z</time>
      </trkpt>
      <trkpt lat="51.143621206283569" lon="5.08515615016222">
        <ele>28.98</ele>
        <time>2022-04-30T13:27:51Z</time>
      </trkpt>
      <trkpt lat="51.143608130514622" lon="5.085243154317141">
        <ele>28.02</ele>
        <time>2022-04-30T13:28:00Z</time>
      </trkpt>
      <trkpt lat="51.1436075437814" lon="5.085268802940846">
        <ele>28.02</ele>
        <time>2022-04-30T13:28:01Z</time>
      </trkpt>
      <trkpt lat="51.143609220162034" lon="5.085294367745519">
        <ele>28.02</ele>
        <time>2022-04-30T13:28:02Z</time>
      </trkpt>
      <trkpt lat="51.143612992018461" lon="5.085316831246018">
        <ele>28.5</ele>
        <time>2022-04-30T13:28:03Z</time>
      </trkpt>
      <trkpt lat="51.143620368093252" lon="5.085322614759207">
        <ele>28.02</ele>
        <time>2022-04-30T13:28:08Z</time>
      </trkpt>
      <trkpt lat="51.14363101311028" lon="5.085343485698104">
        <ele>28.02</ele>
        <time>2022-04-30T13:28:09Z</time>
      </trkpt>
      <trkpt lat="51.143657080829144" lon="5.085394699126482">
        <ele>28.5</ele>
        <time>2022-04-30T13:28:11Z</time>
      </trkpt>
      <trkpt lat="51.143673341721296" lon="5.085409870371223">
        <ele>28.5</ele>
        <time>2022-04-30T13:28:12Z</time>
      </trkpt>
      <trkpt lat="51.143689937889576" lon="5.08541950955987">
        <ele>28.02</ele>
        <time>2022-04-30T13:28:13Z</time>
      </trkpt>
      <trkpt lat="51.143883308395743" lon="5.085513135418296">
        <ele>28.5</ele>
        <time>2022-04-30T13:28:28Z</time>
      </trkpt>
      <trkpt lat="51.14402336999774" lon="5.085892667993903">
        <ele>28.02</ele>
        <time>2022-04-30T13:28:50Z</time>
      </trkpt>
      <trkpt lat="51.144133843481541" lon="5.086322072893381">
        <ele>28.5</ele>
        <time>2022-04-30T13:29:11Z</time>
      </trkpt>
      <trkpt lat="51.144328806549311" lon="5.086439335718751">
        <ele>28.5</ele>
        <time>2022-04-30T13:29:29Z</time>
      </trkpt>
      <trkpt lat="51.14454623311758" lon="5.086350152269006">
        <ele>28.02</ele>
        <time>2022-04-30T13:29:46Z</time>
      </trkpt>
      <trkpt lat="51.144588645547628" lon="5.086369263008237">
        <ele>28.02</ele>
        <time>2022-04-30T13:29:50Z</time>
      </trkpt>
      <trkpt lat="51.144599122926593" lon="5.086382841691375">
        <ele>28.02</ele>
        <time>2022-04-30T13:29:51Z</time>
      </trkpt>
      <trkpt lat="51.144609516486526" lon="5.086398851126432">
        <ele>28.5</ele>
        <time>2022-04-30T13:29:52Z</time>
      </trkpt>
      <trkpt lat="51.144615216180682" lon="5.08641678839922">
        <ele>28.5</ele>
        <time>2022-04-30T13:29:53Z</time>
      </trkpt>
      <trkpt lat="51.14462242461741" lon="5.08643539622426">
        <ele>28.5</ele>
        <time>2022-04-30T13:29:54Z</time>
      </trkpt>
      <trkpt lat="51.144623178988695" lon="5.086459955200553">
        <ele>28.5</ele>
        <time>2022-04-30T13:29:55Z</time>
      </trkpt>
      <trkpt lat="51.144625274464488" lon="5.086479904130101">
        <ele>28.5</ele>
        <time>2022-04-30T13:29:56Z</time>
      </trkpt>
      <trkpt lat="51.14459166303277" lon="5.086859436705709">
        <ele>28.5</ele>
        <time>2022-04-30T13:30:14Z</time>
      </trkpt>
      <trkpt lat="51.144588645547628" lon="5.087140398100019">
        <ele>28.5</ele>
        <time>2022-04-30T13:30:29Z</time>
      </trkpt>
      <trkpt lat="51.144589819014072" lon="5.087159927934408">
        <ele>28.5</ele>
        <time>2022-04-30T13:30:30Z</time>
      </trkpt>
      <trkpt lat="51.144589316099882" lon="5.087185241281986">
        <ele>28.5</ele>
        <time>2022-04-30T13:30:31Z</time>
      </trkpt>
      <trkpt lat="51.144588394090533" lon="5.087211057543755">
        <ele>28.5</ele>
        <time>2022-04-30T13:30:32Z</time>
      </trkpt>
      <trkpt lat="51.144555034115911" lon="5.087528396397829">
        <ele>28.98</ele>
        <time>2022-04-30T13:30:48Z</time>
      </trkpt>
      <trkpt lat="51.14455402828753" lon="5.087574077770114">
        <ele>28.5</ele>
        <time>2022-04-30T13:30:52Z</time>
      </trkpt>
      <trkpt lat="51.144557800143957" lon="5.087601654231548">
        <ele>28.98</ele>
        <time>2022-04-30T13:30:53Z</time>
      </trkpt>
      <trkpt lat="51.144562745466828" lon="5.087637277320027">
        <ele>28.5</ele>
        <time>2022-04-30T13:30:54Z</time>
      </trkpt>
      <trkpt lat="51.144570205360651" lon="5.087675163522363">
        <ele>28.5</ele>
        <time>2022-04-30T13:30:55Z</time>
      </trkpt>
      <trkpt lat="51.144576743245125" lon="5.087707350030541">
        <ele>28.5</ele>
        <time>2022-04-30T13:30:56Z</time>
      </trkpt>
      <trkpt lat="51.144666345790029" lon="5.088145136833191">
        <ele>29.460000000000001</ele>
        <time>2022-04-30T13:31:14Z</time>
      </trkpt>
      <trkpt lat="51.144759384915233" lon="5.088586611673236">
        <ele>28.5</ele>
        <time>2022-04-30T13:31:34Z</time>
      </trkpt>
      <trkpt lat="51.144843036308885" lon="5.088931443169713">
        <ele>28.5</ele>
        <time>2022-04-30T13:31:51Z</time>
      </trkpt>
      <trkpt lat="51.144854016602039" lon="5.088965222239494">
        <ele>28.5</ele>
        <time>2022-04-30T13:31:53Z</time>
      </trkpt>
      <trkpt lat="51.144857369363308" lon="5.088986428454518">
        <ele>28.5</ele>
        <time>2022-04-30T13:31:54Z</time>
      </trkpt>
      <trkpt lat="51.144862314686179" lon="5.089006209746003">
        <ele>28.5</ele>
        <time>2022-04-30T13:31:55Z</time>
      </trkpt>
      <trkpt lat="51.144866337999701" lon="5.08902607485652">
        <ele>28.5</ele>
        <time>2022-04-30T13:31:56Z</time>
      </trkpt>
      <trkpt lat="51.144874133169651" lon="5.089042251929641">
        <ele>28.5</ele>
        <time>2022-04-30T13:31:57Z</time>
      </trkpt>
      <trkpt lat="51.144946552813053" lon="5.089368559420109">
        <ele>29.460000000000001</ele>
        <time>2022-04-30T13:32:14Z</time>
      </trkpt>
      <trkpt lat="51.144995670765638" lon="5.089598642662168">
        <ele>29.940000000000001</ele>
        <time>2022-04-30T13:32:27Z</time>
      </trkpt>
      <trkpt lat="51.145002041012049" lon="5.089616160839796">
        <ele>29.460000000000001</ele>
        <time>2022-04-30T13:32:28Z</time>
      </trkpt>
      <trkpt lat="51.145005645230412" lon="5.089631667360663">
        <ele>29.460000000000001</ele>
        <time>2022-04-30T13:32:29Z</time>
      </trkpt>
      <trkpt lat="51.145008243620396" lon="5.089651783928275">
        <ele>29.460000000000001</ele>
        <time>2022-04-30T13:32:30Z</time>
      </trkpt>
      <trkpt lat="51.145141432061791" lon="5.090297693386674">
        <ele>29.940000000000001</ele>
        <time>2022-04-30T13:33:07Z</time>
      </trkpt>
      <trkpt lat="51.145214522257447" lon="5.090641099959612">
        <ele>28.98</ele>
        <time>2022-04-30T13:33:27Z</time>
      </trkpt>
      <trkpt lat="51.145080747082829" lon="5.090895323082805">
        <ele>28.5</ele>
        <time>2022-04-30T13:33:43Z</time>
      </trkpt>
      <trkpt lat="51.14485451951623" lon="5.091149210929871">
        <ele>28.02</ele>
        <time>2022-04-30T13:34:00Z</time>
      </trkpt>
      <trkpt lat="51.144630555063486" lon="5.09131676517427">
        <ele>28.02</ele>
        <time>2022-04-30T13:34:17Z</time>
      </trkpt>
      <trkpt lat="51.144322017207742" lon="5.091604432091117">
        <ele>27.530000000000001</ele>
        <time>2022-04-30T13:34:43Z</time>
      </trkpt>
      <trkpt lat="51.144059998914599" lon="5.091804256662726">
        <ele>28.02</ele>
        <time>2022-04-30T13:35:04Z</time>
      </trkpt>
      <trkpt lat="51.143848104402423" lon="5.091943982988596">
        <ele>28.02</ele>
        <time>2022-04-30T13:35:21Z</time>
      </trkpt>
      <trkpt lat="51.143601341173053" lon="5.092091169208288">
        <ele>28.98</ele>
        <time>2022-04-30T13:35:39Z</time>
      </trkpt>
      <trkpt lat="51.143531184643507" lon="5.092144729569554">
        <ele>28.98</ele>
        <time>2022-04-30T13:35:45Z</time>
      </trkpt>
      <trkpt lat="51.143519533798099" lon="5.092149255797267">
        <ele>28.98</ele>
        <time>2022-04-30T13:35:46Z</time>
      </trkpt>
      <trkpt lat="51.143511570990086" lon="5.092156296595931">
        <ele>28.98</ele>
        <time>2022-04-30T13:35:47Z</time>
      </trkpt>
      <trkpt lat="51.143459603190422" lon="5.092201558873057">
        <ele>28.98</ele>
        <time>2022-04-30T13:35:52Z</time>
      </trkpt>
      <trkpt lat="51.143448539078236" lon="5.092214802280068">
        <ele>28.98</ele>
        <time>2022-04-30T13:35:53Z</time>
      </trkpt>
      <trkpt lat="51.143435630947351" lon="5.092228632420301">
        <ele>28.98</ele>
        <time>2022-04-30T13:35:54Z</time>
      </trkpt>
      <trkpt lat="51.143214516341686" lon="5.092472210526466">
        <ele>28.98</ele>
        <time>2022-04-30T13:36:11Z</time>
      </trkpt>
      <trkpt lat="51.143010333180428" lon="5.092726266011596">
        <ele>28.98</ele>
        <time>2022-04-30T13:36:28Z</time>
      </trkpt>
      <trkpt lat="51.142839509993792" lon="5.092886108905077">
        <ele>28.98</ele>
        <time>2022-04-30T13:36:42Z</time>
      </trkpt>
      <trkpt lat="51.142836157232523" lon="5.092908572405577">
        <ele>28.98</ele>
        <time>2022-04-30T13:36:43Z</time>
      </trkpt>
      <trkpt lat="51.142837079241872" lon="5.092930532991886">
        <ele>29.460000000000001</ele>
        <time>2022-04-30T13:36:44Z</time>
      </trkpt>
      <trkpt lat="51.142841437831521" lon="5.092955259606242">
        <ele>29.460000000000001</ele>
        <time>2022-04-30T13:36:45Z</time>
      </trkpt>
      <trkpt lat="51.142847808077931" lon="5.092978309839964">
        <ele>29.460000000000001</ele>
        <time>2022-04-30T13:36:46Z</time>
      </trkpt>
      <trkpt lat="51.142855351790786" lon="5.0930006057024">
        <ele>28.98</ele>
        <time>2022-04-30T13:36:47Z</time>
      </trkpt>
      <trkpt lat="51.142861722037196" lon="5.093027008697391">
        <ele>28.98</ele>
        <time>2022-04-30T13:36:48Z</time>
      </trkpt>
      <trkpt lat="51.142869014292955" lon="5.093051148578525">
        <ele>28.98</ele>
        <time>2022-04-30T13:36:49Z</time>
      </trkpt>
      <trkpt lat="51.14297186024487" lon="5.093329679220915">
        <ele>29.460000000000001</ele>
        <time>2022-04-30T13:37:03Z</time>
      </trkpt>
      <trkpt lat="51.14312332123518" lon="5.093744248151779">
        <ele>28.98</ele>
        <time>2022-04-30T13:37:22Z</time>
      </trkpt>
      <trkpt lat="51.143180821090937" lon="5.093890847638249">
        <ele>29.460000000000001</ele>
        <time>2022-04-30T13:37:37Z</time>
      </trkpt>
      <trkpt lat="51.143168834969401" lon="5.093879615888">
        <ele>29.940000000000001</ele>
        <time>2022-04-30T13:37:44Z</time>
      </trkpt>
      <trkpt lat="51.143166404217482" lon="5.094013307243586">
        <ele>30.420000000000002</ele>
        <time>2022-04-30T13:37:46Z</time>
      </trkpt>
      <trkpt lat="51.143086357042193" lon="5.09424515068531">
        <ele>30.899999999999999</ele>
        <time>2022-04-30T13:38:11Z</time>
      </trkpt>
      <trkpt lat="51.14307495765388" lon="5.094280941411853">
        <ele>30.899999999999999</ele>
        <time>2022-04-30T13:38:13Z</time>
      </trkpt>
      <trkpt lat="51.143063893541694" lon="5.094379261136055">
        <ele>30.899999999999999</ele>
        <time>2022-04-30T13:38:19Z</time>
      </trkpt>
      <trkpt lat="51.143076047301292" lon="5.094491327181459">
        <ele>30.420000000000002</ele>
        <time>2022-04-30T13:38:24Z</time>
      </trkpt>
      <trkpt lat="51.143070766702294" lon="5.094511779025197">
        <ele>30.899999999999999</ele>
        <time>2022-04-30T13:38:25Z</time>
      </trkpt>
      <trkpt lat="51.14306372590363" lon="5.094527453184128">
        <ele>31.379999999999999</ele>
        <time>2022-04-30T13:38:26Z</time>
      </trkpt>
      <trkpt lat="51.143053499981761" lon="5.094586042687297">
        <ele>30.899999999999999</ele>
        <time>2022-04-30T13:38:29Z</time>
      </trkpt>
      <trkpt lat="51.142992731183767" lon="5.0948725361377">
        <ele>30.420000000000002</ele>
        <time>2022-04-30T13:38:43Z</time>
      </trkpt>
      <trkpt lat="51.142990803346038" lon="5.094890473410487">
        <ele>30.420000000000002</ele>
        <time>2022-04-30T13:38:44Z</time>
      </trkpt>
      <trkpt lat="51.14294009283185" lon="5.09507043287158">
        <ele>30.899999999999999</ele>
        <time>2022-04-30T13:38:54Z</time>
      </trkpt>
      <trkpt lat="51.142915701493621" lon="5.095265982672572">
        <ele>29.940000000000001</ele>
        <time>2022-04-30T13:39:07Z</time>
      </trkpt>
      <trkpt lat="51.14294009283185" lon="5.095453066751361">
        <ele>30.420000000000002</ele>
        <time>2022-04-30T13:39:09Z</time>
      </trkpt>
      <trkpt lat="51.14294009283185" lon="5.095463125035167">
        <ele>29.940000000000001</ele>
        <time>2022-04-30T13:39:10Z</time>
      </trkpt>
      <trkpt lat="51.14300605840981" lon="5.095619447529316">
        <ele>30.420000000000002</ele>
        <time>2022-04-30T13:39:24Z</time>
      </trkpt>
      <trkpt lat="51.143032880499959" lon="5.09576621465385">
        <ele>29.940000000000001</ele>
        <time>2022-04-30T13:39:31Z</time>
      </trkpt>
      <trkpt lat="51.14304268732667" lon="5.095809465274215">
        <ele>29.940000000000001</ele>
        <time>2022-04-30T13:39:33Z</time>
      </trkpt>
      <trkpt lat="51.143166990950704" lon="5.09599101729691">
        <ele>30.420000000000002</ele>
        <time>2022-04-30T13:39:46Z</time>
      </trkpt>
      <trkpt lat="51.143305124714971" lon="5.096189668402076">
        <ele>30.899999999999999</ele>
        <time>2022-04-30T13:40:00Z</time>
      </trkpt>
      <trkpt lat="51.143397577106953" lon="5.096297208219767">
        <ele>30.420000000000002</ele>
        <time>2022-04-30T13:40:11Z</time>
      </trkpt>
      <trkpt lat="51.143442839384079" lon="5.096379602327943">
        <ele>30.420000000000002</ele>
        <time>2022-04-30T13:40:17Z</time>
      </trkpt>
      <trkpt lat="51.14344828762114" lon="5.096401814371347">
        <ele>30.420000000000002</ele>
        <time>2022-04-30T13:40:18Z</time>
      </trkpt>
      <trkpt lat="51.143493382260203" lon="5.096449758857489">
        <ele>32.340000000000003</ele>
        <time>2022-04-30T13:40:31Z</time>
      </trkpt>
      <trkpt lat="51.143040675669909" lon="5.09693305939436">
        <ele>31.859999999999999</ele>
        <time>2022-04-30T13:40:47Z</time>
      </trkpt>
      <trkpt lat="51.143090967088938" lon="5.097074043005705">
        <ele>29.460000000000001</ele>
        <time>2022-04-30T13:41:01Z</time>
      </trkpt>
      <trkpt lat="51.14366764202714" lon="5.096894670277834">
        <ele>29.460000000000001</ele>
        <time>2022-04-30T13:41:14Z</time>
      </trkpt>
      <trkpt lat="51.143872076645494" lon="5.096804648637772">
        <ele>29.940000000000001</ele>
        <time>2022-04-30T13:41:29Z</time>
      </trkpt>
      <trkpt lat="51.144222859293222" lon="5.096187992021442">
        <ele>28.98</ele>
        <time>2022-04-30T13:41:47Z</time>
      </trkpt>
      <trkpt lat="51.144927106797695" lon="5.09789957664907">
        <ele>29.460000000000001</ele>
        <time>2022-04-30T13:41:56Z</time>
      </trkpt>
      <trkpt lat="51.145832603797317" lon="5.099802520126104">
        <ele>29.460000000000001</ele>
        <time>2022-04-30T13:48:05Z</time>
      </trkpt>
      <trkpt lat="51.146128736436367" lon="5.100394114851952">
        <ele>29.460000000000001</ele>
        <time>2022-04-30T13:48:14Z</time>
      </trkpt>
      <trkpt lat="51.14616209641099" lon="5.100449435412884">
        <ele>29.460000000000001</ele>
        <time>2022-04-30T13:48:15Z</time>
      </trkpt>
      <trkpt lat="51.14619386382401" lon="5.100508695468307">
        <ele>29.460000000000001</ele>
        <time>2022-04-30T13:48:16Z</time>
      </trkpt>
      <trkpt lat="51.146295201033354" lon="5.100723188370466">
        <ele>29.460000000000001</ele>
        <time>2022-04-30T13:48:20Z</time>
      </trkpt>
      <trkpt lat="51.146324370056391" lon="5.100771132856607">
        <ele>28.98</ele>
        <time>2022-04-30T13:48:21Z</time>
      </trkpt>
      <trkpt lat="51.146625112742186" lon="5.101323584094644">
        <ele>28.98</ele>
        <time>2022-04-30T13:48:32Z</time>
      </trkpt>
      <trkpt lat="51.146967262029648" lon="5.101912328973413">
        <ele>28.5</ele>
        <time>2022-04-30T13:48:44Z</time>
      </trkpt>
      <trkpt lat="51.147156860679388" lon="5.102207371965051">
        <ele>28.02</ele>
        <time>2022-04-30T13:48:50Z</time>
      </trkpt>
      <trkpt lat="51.147527256980538" lon="5.10276879183948">
        <ele>28.02</ele>
        <time>2022-04-30T13:49:01Z</time>
      </trkpt>
      <trkpt lat="51.14756690338254" lon="5.102800894528627">
        <ele>28.02</ele>
        <time>2022-04-30T13:49:02Z</time>
      </trkpt>
      <trkpt lat="51.147926403209567" lon="5.102997701615095">
        <ele>28.02</ele>
        <time>2022-04-30T13:49:13Z</time>
      </trkpt>
      <trkpt lat="51.148057160899043" lon="5.103048076853156">
        <ele>28.5</ele>
        <time>2022-04-30T13:49:23Z</time>
      </trkpt>
      <trkpt lat="51.151346722617745" lon="5.104482723399997">
        <ele>27.530000000000001</ele>
        <time>2022-04-30T14:09:03Z</time>
      </trkpt>
      <trkpt lat="51.15136256441474" lon="5.104474173858762">
        <ele>27.530000000000001</ele>
        <time>2022-04-30T14:09:04Z</time>
      </trkpt>
      <trkpt lat="51.151632629334927" lon="5.104545839130878">
        <ele>27.530000000000001</ele>
        <time>2022-04-30T14:09:16Z</time>
      </trkpt>
      <trkpt lat="51.152178710326552" lon="5.104719009250403">
        <ele>27.050000000000001</ele>
        <time>2022-04-30T14:09:30Z</time>
      </trkpt>
      <trkpt lat="51.152223302051425" lon="5.104733761399984">
        <ele>27.050000000000001</ele>
        <time>2022-04-30T14:09:31Z</time>
      </trkpt>
      <trkpt lat="51.152656730264425" lon="5.104891592636704">
        <ele>26.57</ele>
        <time>2022-04-30T14:09:42Z</time>
      </trkpt>
      <trkpt lat="51.152912881225348" lon="5.105016902089119">
        <ele>27.050000000000001</ele>
        <time>2022-04-30T14:09:53Z</time>
      </trkpt>
      <trkpt lat="51.153111448511481" lon="5.105151012539864">
        <ele>27.050000000000001</ele>
        <time>2022-04-30T14:10:09Z</time>
      </trkpt>
      <trkpt lat="51.153123686090112" lon="5.105153694748879">
        <ele>27.050000000000001</ele>
        <time>2022-04-30T14:10:10Z</time>
      </trkpt>
      <trkpt lat="51.153151094913483" lon="5.10515570640564">
        <ele>27.050000000000001</ele>
        <time>2022-04-30T14:10:12Z</time>
      </trkpt>
      <trkpt lat="51.153165930882096" lon="5.105164675042033">
        <ele>26.57</ele>
        <time>2022-04-30T14:10:13Z</time>
      </trkpt>
      <trkpt lat="51.15318319760263" lon="5.105170207098126">
        <ele>27.530000000000001</ele>
        <time>2022-04-30T14:10:14Z</time>
      </trkpt>
      <trkpt lat="51.153200548142195" lon="5.10517381131649">
        <ele>27.530000000000001</ele>
        <time>2022-04-30T14:10:15Z</time>
      </trkpt>
      <trkpt lat="51.15321597084403" lon="5.105180600658059">
        <ele>26.57</ele>
        <time>2022-04-30T14:10:16Z</time>
      </trkpt>
      <trkpt lat="51.153230722993612" lon="5.105186216533184">
        <ele>27.050000000000001</ele>
        <time>2022-04-30T14:10:17Z</time>
      </trkpt>
      <trkpt lat="51.153480755165219" lon="5.105266598984599">
        <ele>25.609999999999999</ele>
        <time>2022-04-30T14:10:36Z</time>
      </trkpt>
      <trkpt lat="51.153667671605945" lon="5.105329630896449">
        <ele>26.09</ele>
        <time>2022-04-30T14:10:53Z</time>
      </trkpt>
      <trkpt lat="51.153681501746178" lon="5.105315130203962">
        <ele>25.609999999999999</ele>
        <time>2022-04-30T14:10:54Z</time>
      </trkpt>
      <trkpt lat="51.153695248067379" lon="5.105296187102795">
        <ele>25.609999999999999</ele>
        <time>2022-04-30T14:10:55Z</time>
      </trkpt>
      <trkpt lat="51.153702707961202" lon="5.105276321992278">
        <ele>25.609999999999999</ele>
        <time>2022-04-30T14:10:56Z</time>
      </trkpt>
      <trkpt lat="51.153709245845675" lon="5.105257043614984">
        <ele>26.09</ele>
        <time>2022-04-30T14:10:57Z</time>
      </trkpt>
      <trkpt lat="51.153715280815959" lon="5.10523583739996">
        <ele>26.09</ele>
        <time>2022-04-30T14:10:58Z</time>
      </trkpt>
      <trkpt lat="51.153722489252687" lon="5.105212368071079">
        <ele>25.609999999999999</ele>
        <time>2022-04-30T14:10:59Z</time>
      </trkpt>
      <trkpt lat="51.15372559055686" lon="5.105178169906139">
        <ele>25.609999999999999</ele>
        <time>2022-04-30T14:11:00Z</time>
      </trkpt>
      <trkpt lat="51.153723411262035" lon="5.105140116065741">
        <ele>25.609999999999999</ele>
        <time>2022-04-30T14:11:01Z</time>
      </trkpt>
      <trkpt lat="51.153715699911118" lon="5.105107426643372">
        <ele>26.09</ele>
        <time>2022-04-30T14:11:02Z</time>
      </trkpt>
      <trkpt lat="51.153707234188914" lon="5.105080101639032">
        <ele>26.09</ele>
        <time>2022-04-30T14:11:03Z</time>
      </trkpt>
      <trkpt lat="51.153698852285743" lon="5.105056297034025">
        <ele>25.609999999999999</ele>
        <time>2022-04-30T14:11:04Z</time>
      </trkpt>
      <trkpt lat="51.153687871992588" lon="5.105036934837699">
        <ele>26.09</ele>
        <time>2022-04-30T14:11:05Z</time>
      </trkpt>
      <trkpt lat="51.153676640242338" lon="5.105022266507149">
        <ele>26.09</ele>
        <time>2022-04-30T14:11:06Z</time>
      </trkpt>
      <trkpt lat="51.153545714914799" lon="5.104675507172942">
        <ele>25.609999999999999</ele>
        <time>2022-04-30T14:11:25Z</time>
      </trkpt>
      <trkpt lat="51.153499027714133" lon="5.104349367320538">
        <ele>26.09</ele>
        <time>2022-04-30T14:11:41Z</time>
      </trkpt>
      <trkpt lat="51.153502631932497" lon="5.104178711771965">
        <ele>26.57</ele>
        <time>2022-04-30T14:11:49Z</time>
      </trkpt>
      <trkpt lat="51.153508331626654" lon="5.104159601032734">
        <ele>26.57</ele>
        <time>2022-04-30T14:11:50Z</time>
      </trkpt>
      <trkpt lat="51.153515456244349" lon="5.104142418131232">
        <ele>26.57</ele>
        <time>2022-04-30T14:11:51Z</time>
      </trkpt>
      <trkpt lat="51.153558287769556" lon="5.10384519584477">
        <ele>25.609999999999999</ele>
        <time>2022-04-30T14:12:05Z</time>
      </trkpt>
      <trkpt lat="51.15356583148241" lon="5.103790713474155">
        <ele>25.609999999999999</ele>
        <time>2022-04-30T14:12:08Z</time>
      </trkpt>
      <trkpt lat="51.153636071830988" lon="5.103486450389028">
        <ele>25.129999999999999</ele>
        <time>2022-04-30T14:12:25Z</time>
      </trkpt>
      <trkpt lat="51.153687704354525" lon="5.103046149015427">
        <ele>25.609999999999999</ele>
        <time>2022-04-30T14:12:44Z</time>
      </trkpt>
      <trkpt lat="51.153621319681406" lon="5.102676758542657">
        <ele>25.609999999999999</ele>
        <time>2022-04-30T14:13:02Z</time>
      </trkpt>
      <trkpt lat="51.153551246970892" lon="5.102321701124311">
        <ele>25.609999999999999</ele>
        <time>2022-04-30T14:13:21Z</time>
      </trkpt>
      <trkpt lat="51.153497435152531" lon="5.101970247924328">
        <ele>25.609999999999999</ele>
        <time>2022-04-30T14:13:38Z</time>
      </trkpt>
      <trkpt lat="51.153436666354537" lon="5.101614352315664">
        <ele>25.609999999999999</ele>
        <time>2022-04-30T14:13:55Z</time>
      </trkpt>
      <trkpt lat="51.153415208682418" lon="5.101530365645886">
        <ele>26.09</ele>
        <time>2022-04-30T14:13:59Z</time>
      </trkpt>
      <trkpt lat="51.153411772102118" lon="5.101506980136037">
        <ele>26.09</ele>
        <time>2022-04-30T14:14:00Z</time>
      </trkpt>
      <trkpt lat="51.153411185368896" lon="5.101486193016172">
        <ele>26.09</ele>
        <time>2022-04-30T14:14:01Z</time>
      </trkpt>
      <trkpt lat="51.153407413512468" lon="5.101464819163084">
        <ele>26.09</ele>
        <time>2022-04-30T14:14:02Z</time>
      </trkpt>
      <trkpt lat="51.153405234217644" lon="5.101443193852902">
        <ele>26.09</ele>
        <time>2022-04-30T14:14:03Z</time>
      </trkpt>
      <trkpt lat="51.153357038274407" lon="5.101058799773455">
        <ele>26.09</ele>
        <time>2022-04-30T14:14:21Z</time>
      </trkpt>
      <trkpt lat="51.153312111273408" lon="5.100632077082992">
        <ele>26.57</ele>
        <time>2022-04-30T14:14:39Z</time>
      </trkpt>
      <trkpt lat="51.153258550912142" lon="5.100196218118072">
        <ele>25.609999999999999</ele>
        <time>2022-04-30T14:14:59Z</time>
      </trkpt>
      <trkpt lat="51.153227956965566" lon="5.099861361086369">
        <ele>26.09</ele>
        <time>2022-04-30T14:15:13Z</time>
      </trkpt>
      <trkpt lat="51.153183616697788" lon="5.099610574543476">
        <ele>26.09</ele>
        <time>2022-04-30T14:15:25Z</time>
      </trkpt>
      <trkpt lat="51.153178084641695" lon="5.099588111042976">
        <ele>26.57</ele>
        <time>2022-04-30T14:15:26Z</time>
      </trkpt>
      <trkpt lat="51.153174228966236" lon="5.099565647542477">
        <ele>26.09</ele>
        <time>2022-04-30T14:15:27Z</time>
      </trkpt>
      <trkpt lat="51.153175150975585" lon="5.099542764946818">
        <ele>26.09</ele>
        <time>2022-04-30T14:15:28Z</time>
      </trkpt>
      <trkpt lat="51.153176911175251" lon="5.099523067474365">
        <ele>26.09</ele>
        <time>2022-04-30T14:15:29Z</time>
      </trkpt>
      <trkpt lat="51.153175821527839" lon="5.09950278326869">
        <ele>26.57</ele>
        <time>2022-04-30T14:15:30Z</time>
      </trkpt>
      <trkpt lat="51.153177581727505" lon="5.099483840167522">
        <ele>26.09</ele>
        <time>2022-04-30T14:15:31Z</time>
      </trkpt>
      <trkpt lat="51.153180347755551" lon="5.099462382495403">
        <ele>26.57</ele>
        <time>2022-04-30T14:15:32Z</time>
      </trkpt>
      <trkpt lat="51.153179258108139" lon="5.099437739700079">
        <ele>26.57</ele>
        <time>2022-04-30T14:15:33Z</time>
      </trkpt>
      <trkpt lat="51.153137683868408" lon="5.099051585420966">
        <ele>26.57</ele>
        <time>2022-04-30T14:15:49Z</time>
      </trkpt>
      <trkpt lat="51.153129385784268" lon="5.098745813593268">
        <ele>26.57</ele>
        <time>2022-04-30T14:16:03Z</time>
      </trkpt>
      <trkpt lat="51.153189903125167" lon="5.098379692062736">
        <ele>26.09</ele>
        <time>2022-04-30T14:16:20Z</time>
      </trkpt>
      <trkpt lat="51.153201889246702" lon="5.098318168893457">
        <ele>26.57</ele>
        <time>2022-04-30T14:16:23Z</time>
      </trkpt>
      <trkpt lat="51.15328042767942" lon="5.097974259406328">
        <ele>26.57</ele>
        <time>2022-04-30T14:16:37Z</time>
      </trkpt>
      <trkpt lat="51.153359888121486" lon="5.097591876983643">
        <ele>26.57</ele>
        <time>2022-04-30T14:16:53Z</time>
      </trkpt>
      <trkpt lat="51.153420908376575" lon="5.097292056307197">
        <ele>26.57</ele>
        <time>2022-04-30T14:17:05Z</time>
      </trkpt>
      <trkpt lat="51.153473714366555" lon="5.096908751875162">
        <ele>26.57</ele>
        <time>2022-04-30T14:17:20Z</time>
      </trkpt>
      <trkpt lat="51.153523167595267" lon="5.096603902056813">
        <ele>27.530000000000001</ele>
        <time>2022-04-30T14:17:36Z</time>
      </trkpt>
      <trkpt lat="51.153571028262377" lon="5.096220849081874">
        <ele>27.530000000000001</ele>
        <time>2022-04-30T14:17:55Z</time>
      </trkpt>
      <trkpt lat="51.153646130114794" lon="5.095865037292242">
        <ele>27.530000000000001</ele>
        <time>2022-04-30T14:18:13Z</time>
      </trkpt>
      <trkpt lat="51.153745539486408" lon="5.095491539686918">
        <ele>26.57</ele>
        <time>2022-04-30T14:18:32Z</time>
      </trkpt>
      <trkpt lat="51.153862215578556" lon="5.095112007111311">
        <ele>26.57</ele>
        <time>2022-04-30T14:18:52Z</time>
      </trkpt>
      <trkpt lat="51.154008647426963" lon="5.094696180894971">
        <ele>26.09</ele>
        <time>2022-04-30T14:19:14Z</time>
      </trkpt>
      <trkpt lat="51.154160778969526" lon="5.094304997473955">
        <ele>26.57</ele>
        <time>2022-04-30T14:19:31Z</time>
      </trkpt>
      <trkpt lat="51.154225822538137" lon="5.093903001397848">
        <ele>27.050000000000001</ele>
        <time>2022-04-30T14:19:48Z</time>
      </trkpt>
      <trkpt lat="51.154290530830622" lon="5.093528078868985">
        <ele>27.050000000000001</ele>
        <time>2022-04-30T14:20:05Z</time>
      </trkpt>
      <trkpt lat="51.15438474342227" lon="5.093176458030939">
        <ele>27.050000000000001</ele>
        <time>2022-04-30T14:20:22Z</time>
      </trkpt>
      <trkpt lat="51.154503347352147" lon="5.092680668458343">
        <ele>26.57</ele>
        <time>2022-04-30T14:20:33Z</time>
      </trkpt>
      <trkpt lat="51.154759833589196" lon="5.091829905286431">
        <ele>27.050000000000001</ele>
        <time>2022-04-30T14:20:48Z</time>
      </trkpt>
      <trkpt lat="51.154791349545121" lon="5.091721946373582">
        <ele>27.530000000000001</ele>
        <time>2022-04-30T14:20:50Z</time>
      </trkpt>
      <trkpt lat="51.155035262927413" lon="5.090988026931882">
        <ele>27.530000000000001</ele>
        <time>2022-04-30T14:21:02Z</time>
      </trkpt>
      <trkpt lat="51.155061665922403" lon="5.090930107980967">
        <ele>27.050000000000001</ele>
        <time>2022-04-30T14:21:03Z</time>
      </trkpt>
      <trkpt lat="51.155191082507372" lon="5.090537667274475">
        <ele>27.050000000000001</ele>
        <time>2022-04-30T14:21:09Z</time>
      </trkpt>
      <trkpt lat="51.155237266793847" lon="5.090334322303534">
        <ele>28.02</ele>
        <time>2022-04-30T14:21:12Z</time>
      </trkpt>
      <trkpt lat="51.155255706980824" lon="5.090274307876825">
        <ele>27.530000000000001</ele>
        <time>2022-04-30T14:21:13Z</time>
      </trkpt>
      <trkpt lat="51.155276242643595" lon="5.090225441381335">
        <ele>27.530000000000001</ele>
        <time>2022-04-30T14:21:14Z</time>
      </trkpt>
      <trkpt lat="51.155297784134746" lon="5.09017825126648">
        <ele>28.02</ele>
        <time>2022-04-30T14:21:15Z</time>
      </trkpt>
      <trkpt lat="51.155316811054945" lon="5.09012502618134">
        <ele>27.530000000000001</ele>
        <time>2022-04-30T14:21:16Z</time>
      </trkpt>
      <trkpt lat="51.155334580689669" lon="5.090064341202378">
        <ele>27.530000000000001</ele>
        <time>2022-04-30T14:21:17Z</time>
      </trkpt>
      <trkpt lat="51.155355200171471" lon="5.090004997327924">
        <ele>27.530000000000001</ele>
        <time>2022-04-30T14:21:18Z</time>
      </trkpt>
      <trkpt lat="51.155378166586161" lon="5.08994179777801">
        <ele>27.530000000000001</ele>
        <time>2022-04-30T14:21:19Z</time>
      </trkpt>
      <trkpt lat="51.155545972287655" lon="5.089197987690568">
        <ele>26.09</ele>
        <time>2022-04-30T14:21:30Z</time>
      </trkpt>
      <trkpt lat="51.155558209866285" lon="5.089053986594081">
        <ele>26.09</ele>
        <time>2022-04-30T14:21:32Z</time>
      </trkpt>
      <trkpt lat="51.155619313940406" lon="5.088549479842186">
        <ele>26.09</ele>
        <time>2022-04-30T14:21:39Z</time>
      </trkpt>
      <trkpt lat="51.155626270920038" lon="5.088483262807131">
        <ele>26.09</ele>
        <time>2022-04-30T14:21:40Z</time>
      </trkpt>
      <trkpt lat="51.155633395537734" lon="5.088417381048203">
        <ele>26.57</ele>
        <time>2022-04-30T14:21:41Z</time>
      </trkpt>
      <trkpt lat="51.15564052015543" lon="5.088349403813481">
        <ele>26.57</ele>
        <time>2022-04-30T14:21:42Z</time>
      </trkpt>
      <trkpt lat="51.155651081353426" lon="5.088281258940697">
        <ele>26.57</ele>
        <time>2022-04-30T14:21:43Z</time>
      </trkpt>
      <trkpt lat="51.155764488503337" lon="5.087177529931068">
        <ele>26.09</ele>
        <time>2022-04-30T14:21:59Z</time>
      </trkpt>
      <trkpt lat="51.155837662518024" lon="5.086366664618254">
        <ele>25.129999999999999</ele>
        <time>2022-04-30T14:22:11Z</time>
      </trkpt>
      <trkpt lat="51.155846379697323" lon="5.086313774809241">
        <ele>25.609999999999999</ele>
        <time>2022-04-30T14:22:12Z</time>
      </trkpt>
      <trkpt lat="51.155909411609173" lon="5.085407858714461">
        <ele>25.129999999999999</ele>
        <time>2022-04-30T14:22:25Z</time>
      </trkpt>
      <trkpt lat="51.155951572582126" lon="5.084789441898465">
        <ele>24.649999999999999</ele>
        <time>2022-04-30T14:22:33Z</time>
      </trkpt>
      <trkpt lat="51.155971018597484" lon="5.08384907618165">
        <ele>24.649999999999999</ele>
        <time>2022-04-30T14:22:46Z</time>
      </trkpt>
      <trkpt lat="51.155971689149737" lon="5.083777913823724">
        <ele>24.649999999999999</ele>
        <time>2022-04-30T14:22:47Z</time>
      </trkpt>
      <trkpt lat="51.155974371358752" lon="5.083706248551607">
        <ele>25.129999999999999</ele>
        <time>2022-04-30T14:22:48Z</time>
      </trkpt>
      <trkpt lat="51.156010581180453" lon="5.082605620846152">
        <ele>25.129999999999999</ele>
        <time>2022-04-30T14:23:04Z</time>
      </trkpt>
      <trkpt lat="51.156021226197481" lon="5.082531608641148">
        <ele>25.129999999999999</ele>
        <time>2022-04-30T14:23:05Z</time>
      </trkpt>
      <trkpt lat="51.156128933653235" lon="5.081554362550378">
        <ele>25.129999999999999</ele>
        <time>2022-04-30T14:23:19Z</time>
      </trkpt>
      <trkpt lat="51.156179560348392" lon="5.080731259658933">
        <ele>24.649999999999999</ele>
        <time>2022-04-30T14:23:32Z</time>
      </trkpt>
      <trkpt lat="51.156117115169764" lon="5.079942103475332">
        <ele>23.690000000000001</ele>
        <time>2022-04-30T14:23:43Z</time>
      </trkpt>
      <trkpt lat="51.15610278211534" lon="5.079779578372836">
        <ele>23.690000000000001</ele>
        <time>2022-04-30T14:23:45Z</time>
      </trkpt>
      <trkpt lat="51.156099932268262" lon="5.079699531197548">
        <ele>24.170000000000002</ele>
        <time>2022-04-30T14:23:46Z</time>
      </trkpt>
      <trkpt lat="51.156084425747395" lon="5.078732511028647">
        <ele>25.129999999999999</ele>
        <time>2022-04-30T14:24:00Z</time>
      </trkpt>
      <trkpt lat="51.156091969460249" lon="5.078273601830006">
        <ele>25.129999999999999</ele>
        <time>2022-04-30T14:24:07Z</time>
      </trkpt>
      <trkpt lat="51.156101189553738" lon="5.078297406435013">
        <ele>25.609999999999999</ele>
        <time>2022-04-30T14:24:08Z</time>
      </trkpt>
      <trkpt lat="51.156118623912334" lon="5.078283324837685">
        <ele>25.609999999999999</ele>
        <time>2022-04-30T14:24:09Z</time>
      </trkpt>
      <trkpt lat="51.156143937259912" lon="5.078270835801959">
        <ele>25.609999999999999</ele>
        <time>2022-04-30T14:24:10Z</time>
      </trkpt>
      <trkpt lat="51.156178638339043" lon="5.078256670385599">
        <ele>26.09</ele>
        <time>2022-04-30T14:24:11Z</time>
      </trkpt>
      <trkpt lat="51.156213758513331" lon="5.078247366473079">
        <ele>26.09</ele>
        <time>2022-04-30T14:24:12Z</time>
      </trkpt>
      <trkpt lat="51.156372260302305" lon="5.078040584921837">
        <ele>26.09</ele>
        <time>2022-04-30T14:24:21Z</time>
      </trkpt>
      <trkpt lat="51.15627670660615" lon="5.077205495908856">
        <ele>27.050000000000001</ele>
        <time>2022-04-30T14:24:33Z</time>
      </trkpt>
      <trkpt lat="51.156228510662913" lon="5.07680794224143">
        <ele>26.09</ele>
        <time>2022-04-30T14:24:48Z</time>
      </trkpt>
      <trkpt lat="51.156205795705318" lon="5.076497979462147">
        <ele>27.530000000000001</ele>
        <time>2022-04-30T14:25:03Z</time>
      </trkpt>
      <trkpt lat="51.156094651669264" lon="5.076081063598394">
        <ele>25.609999999999999</ele>
        <time>2022-04-30T14:26:17Z</time>
      </trkpt>
      <trkpt lat="51.15566348657012" lon="5.076228836551309">
        <ele>27.530000000000001</ele>
        <time>2022-04-30T14:26:36Z</time>
      </trkpt>
      <trkpt lat="51.155521832406521" lon="5.076192878186703">
        <ele>27.530000000000001</ele>
        <time>2022-04-30T14:26:46Z</time>
      </trkpt>
      <trkpt lat="51.155511774122715" lon="5.076169911772013">
        <ele>27.050000000000001</ele>
        <time>2022-04-30T14:26:47Z</time>
      </trkpt>
      <trkpt lat="51.155504146590829" lon="5.076145436614752">
        <ele>27.050000000000001</ele>
        <time>2022-04-30T14:26:48Z</time>
      </trkpt>
      <trkpt lat="51.155497524887323" lon="5.076117273420095">
        <ele>26.57</ele>
        <time>2022-04-30T14:26:49Z</time>
      </trkpt>
      <trkpt lat="51.155492663383484" lon="5.076091540977359">
        <ele>26.57</ele>
        <time>2022-04-30T14:26:50Z</time>
      </trkpt>
      <trkpt lat="51.155491154640913" lon="5.076064970344305">
        <ele>26.57</ele>
        <time>2022-04-30T14:26:51Z</time>
      </trkpt>
      <trkpt lat="51.155490735545754" lon="5.07603982463479">
        <ele>26.57</ele>
        <time>2022-04-30T14:26:52Z</time>
      </trkpt>
      <trkpt lat="51.155491322278976" lon="5.076015433296561">
        <ele>27.050000000000001</ele>
        <time>2022-04-30T14:26:53Z</time>
      </trkpt>
      <trkpt lat="51.155492160469294" lon="5.075992299243808">
        <ele>27.050000000000001</ele>
        <time>2022-04-30T14:26:54Z</time>
      </trkpt>
      <trkpt lat="51.155493417754769" lon="5.075968997552991">
        <ele>27.050000000000001</ele>
        <time>2022-04-30T14:26:55Z</time>
      </trkpt>
      <trkpt lat="51.155494088307023" lon="5.075946198776364">
        <ele>27.050000000000001</ele>
        <time>2022-04-30T14:26:56Z</time>
      </trkpt>
      <trkpt lat="51.155495932325721" lon="5.075580580160022">
        <ele>27.050000000000001</ele>
        <time>2022-04-30T14:27:11Z</time>
      </trkpt>
      <trkpt lat="51.155483527109027" lon="5.075154444202781">
        <ele>27.050000000000001</ele>
        <time>2022-04-30T14:27:28Z</time>
      </trkpt>
      <trkpt lat="51.155454190447927" lon="5.074811792001128">
        <ele>27.050000000000001</ele>
        <time>2022-04-30T14:27:46Z</time>
      </trkpt>
      <trkpt lat="51.155472211539745" lon="5.074357073754072">
        <ele>27.050000000000001</ele>
        <time>2022-04-30T14:30:01Z</time>
      </trkpt>
      <trkpt lat="51.155481012538075" lon="5.073933703824878">
        <ele>26.09</ele>
        <time>2022-04-30T14:30:21Z</time>
      </trkpt>
      <trkpt lat="51.155481599271297" lon="5.073564983904362">
        <ele>27.050000000000001</ele>
        <time>2022-04-30T14:30:38Z</time>
      </trkpt>
      <trkpt lat="51.155449580401182" lon="5.073182266205549">
        <ele>27.050000000000001</ele>
        <time>2022-04-30T14:30:55Z</time>
      </trkpt>
      <trkpt lat="51.155453016981483" lon="5.072984788566828">
        <ele>27.050000000000001</ele>
        <time>2022-04-30T14:31:07Z</time>
      </trkpt>
      <trkpt lat="51.155433738604188" lon="5.072594694793224">
        <ele>24.649999999999999</ele>
        <time>2022-04-30T14:31:25Z</time>
      </trkpt>
      <trkpt lat="51.155433906242251" lon="5.07248992100358">
        <ele>25.609999999999999</ele>
        <time>2022-04-30T14:31:35Z</time>
      </trkpt>
      <trkpt lat="51.155553013086319" lon="5.072429152205586">
        <ele>25.609999999999999</ele>
        <time>2022-04-30T14:31:45Z</time>
      </trkpt>
      <trkpt lat="51.155786197632551" lon="5.072472570464015">
        <ele>27.050000000000001</ele>
        <time>2022-04-30T14:31:59Z</time>
      </trkpt>
      <trkpt lat="51.156261954456568" lon="5.072492435574532">
        <ele>28.98</ele>
        <time>2022-04-30T14:32:29Z</time>
      </trkpt>
      <trkpt lat="51.156529504805803" lon="5.072486149147153">
        <ele>29.940000000000001</ele>
        <time>2022-04-30T14:32:45Z</time>
      </trkpt>
      <trkpt lat="51.156751709058881" lon="5.072479024529457">
        <ele>30.420000000000002</ele>
        <time>2022-04-30T14:33:01Z</time>
      </trkpt>
      <trkpt lat="51.156899901106954" lon="5.072378944605589">
        <ele>30.420000000000002</ele>
        <time>2022-04-30T14:33:14Z</time>
      </trkpt>
      <trkpt lat="51.15721732378006" lon="5.072186999022961">
        <ele>32.340000000000003</ele>
        <time>2022-04-30T14:33:35Z</time>
      </trkpt>
      <trkpt lat="51.157408179715276" lon="5.071958340704441">
        <ele>31.859999999999999</ele>
        <time>2022-04-30T14:33:52Z</time>
      </trkpt>
      <trkpt lat="51.157584451138973" lon="5.071853147819638">
        <ele>30.899999999999999</ele>
        <time>2022-04-30T14:34:09Z</time>
      </trkpt>
      <trkpt lat="51.15780271589756" lon="5.071620214730501">
        <ele>30.899999999999999</ele>
        <time>2022-04-30T14:34:22Z</time>
      </trkpt>
      <trkpt lat="51.157824257388711" lon="5.071486439555883">
        <ele>30.420000000000002</ele>
        <time>2022-04-30T14:34:23Z</time>
      </trkpt>
      <trkpt lat="51.157851247116923" lon="5.071331039071083">
        <ele>31.859999999999999</ele>
        <time>2022-04-30T14:34:31Z</time>
      </trkpt>
      <trkpt lat="51.157834567129612" lon="5.071058375760913">
        <ele>34.740000000000002</ele>
        <time>2022-04-30T14:34:48Z</time>
      </trkpt>
      <trkpt lat="51.157848397269845" lon="5.070815132930875">
        <ele>34.259999999999998</ele>
        <time>2022-04-30T14:35:05Z</time>
      </trkpt>
      <trkpt lat="51.157816210761666" lon="5.070688147097826">
        <ele>33.299999999999997</ele>
        <time>2022-04-30T14:35:12Z</time>
      </trkpt>
      <trkpt lat="51.157810762524605" lon="5.070489663630724">
        <ele>32.82</ele>
        <time>2022-04-30T14:35:24Z</time>
      </trkpt>
      <trkpt lat="51.157691655680537" lon="5.070279780775309">
        <ele>30.899999999999999</ele>
        <time>2022-04-30T14:35:40Z</time>
      </trkpt>
      <trkpt lat="51.157683944329619" lon="5.070269890129566">
        <ele>30.899999999999999</ele>
        <time>2022-04-30T14:35:41Z</time>
      </trkpt>
      <trkpt lat="51.157649662345648" lon="5.070212222635746">
        <ele>29.940000000000001</ele>
        <time>2022-04-30T14:35:45Z</time>
      </trkpt>
      <trkpt lat="51.157454280182719" lon="5.070079369470477">
        <ele>27.530000000000001</ele>
        <time>2022-04-30T14:36:02Z</time>
      </trkpt>
      <trkpt lat="51.15713375620544" lon="5.069911312311888">
        <ele>26.09</ele>
        <time>2022-04-30T14:36:31Z</time>
      </trkpt>
      <trkpt lat="51.156823206692934" lon="5.069926651194692">
        <ele>25.609999999999999</ele>
        <time>2022-04-30T14:36:51Z</time>
      </trkpt>
      <trkpt lat="51.156551716849208" lon="5.06999596953392">
        <ele>26.09</ele>
        <time>2022-04-30T14:37:09Z</time>
      </trkpt>
      <trkpt lat="51.156248291954398" lon="5.070030502974987">
        <ele>27.050000000000001</ele>
        <time>2022-04-30T14:37:27Z</time>
      </trkpt>
      <trkpt lat="51.155955260619521" lon="5.070115746930242">
        <ele>25.609999999999999</ele>
        <time>2022-04-30T14:37:39Z</time>
      </trkpt>
      <trkpt lat="51.155746299773455" lon="5.070124631747603">
        <ele>25.609999999999999</ele>
        <time>2022-04-30T14:37:53Z</time>
      </trkpt>
      <trkpt lat="51.155494004487991" lon="5.0701351929456">
        <ele>25.609999999999999</ele>
        <time>2022-04-30T14:38:10Z</time>
      </trkpt>
      <trkpt lat="51.155439605936408" lon="5.070103174075484">
        <ele>26.09</ele>
        <time>2022-04-30T14:38:14Z</time>
      </trkpt>
      <trkpt lat="51.155430050566792" lon="5.070102084428072">
        <ele>26.09</ele>
        <time>2022-04-30T14:38:15Z</time>
      </trkpt>
      <trkpt lat="51.155417645350099" lon="5.070097893476486">
        <ele>25.609999999999999</ele>
        <time>2022-04-30T14:38:16Z</time>
      </trkpt>
      <trkpt lat="51.155405072495341" lon="5.070089930668473">
        <ele>26.09</ele>
        <time>2022-04-30T14:38:17Z</time>
      </trkpt>
      <trkpt lat="51.155395852401853" lon="5.070071490481496">
        <ele>25.609999999999999</ele>
        <time>2022-04-30T14:38:18Z</time>
      </trkpt>
      <trkpt lat="51.155391493812203" lon="5.070051709190011">
        <ele>26.09</ele>
        <time>2022-04-30T14:38:19Z</time>
      </trkpt>
      <trkpt lat="51.155388811603189" lon="5.070028407499194">
        <ele>26.09</ele>
        <time>2022-04-30T14:38:20Z</time>
      </trkpt>
      <trkpt lat="51.155388643965125" lon="5.070006446912885">
        <ele>26.09</ele>
        <time>2022-04-30T14:38:21Z</time>
      </trkpt>
      <trkpt lat="51.155395684763789" lon="5.069778962060809">
        <ele>26.57</ele>
        <time>2022-04-30T14:38:31Z</time>
      </trkpt>
      <trkpt lat="51.155403396114707" lon="5.069426251575351">
        <ele>28.02</ele>
        <time>2022-04-30T14:38:46Z</time>
      </trkpt>
      <trkpt lat="51.155413202941418" lon="5.069119641557336">
        <ele>26.09</ele>
        <time>2022-04-30T14:39:02Z</time>
      </trkpt>
      <trkpt lat="51.155418734997511" lon="5.068671209737659">
        <ele>25.129999999999999</ele>
        <time>2022-04-30T14:39:19Z</time>
      </trkpt>
      <trkpt lat="51.155401300638914" lon="5.068527963012457">
        <ele>25.129999999999999</ele>
        <time>2022-04-30T14:39:35Z</time>
      </trkpt>
      <trkpt lat="51.155395684763789" lon="5.068509858101606">
        <ele>25.129999999999999</ele>
        <time>2022-04-30T14:39:42Z</time>
      </trkpt>
      <trkpt lat="51.155397277325392" lon="5.06849099881947">
        <ele>24.649999999999999</ele>
        <time>2022-04-30T14:39:43Z</time>
      </trkpt>
      <trkpt lat="51.155397612601519" lon="5.068471049889922">
        <ele>25.129999999999999</ele>
        <time>2022-04-30T14:39:44Z</time>
      </trkpt>
      <trkpt lat="51.155416136607528" lon="5.068149184808135">
        <ele>26.09</ele>
        <time>2022-04-30T14:39:59Z</time>
      </trkpt>
      <trkpt lat="51.155441198498011" lon="5.067974170669913">
        <ele>27.050000000000001</ele>
        <time>2022-04-30T14:42:25Z</time>
      </trkpt>
      <trkpt lat="51.155400797724724" lon="5.067339912056923">
        <ele>28.5</ele>
        <time>2022-04-30T14:42:40Z</time>
      </trkpt>
      <trkpt lat="51.155481683090329" lon="5.06699038669467">
        <ele>28.98</ele>
        <time>2022-04-30T14:42:55Z</time>
      </trkpt>
      <trkpt lat="51.155813103541732" lon="5.066800536587834">
        <ele>29.460000000000001</ele>
        <time>2022-04-30T14:43:13Z</time>
      </trkpt>
      <trkpt lat="51.155945369973779" lon="5.067141428589821">
        <ele>28.98</ele>
        <time>2022-04-30T14:43:29Z</time>
      </trkpt>
      <trkpt lat="51.156179811805487" lon="5.067417612299323">
        <ele>29.940000000000001</ele>
        <time>2022-04-30T14:43:31Z</time>
      </trkpt>
      <trkpt lat="51.156959999352694" lon="5.067590195685625">
        <ele>29.460000000000001</ele>
        <time>2022-04-30T14:43:36Z</time>
      </trkpt>
      <trkpt lat="51.157517898827791" lon="5.067503862082958">
        <ele>30.899999999999999</ele>
        <time>2022-04-30T14:43:37Z</time>
      </trkpt>
      <trkpt lat="51.157666090875864" lon="5.067477962002158">
        <ele>29.460000000000001</ele>
        <time>2022-04-30T14:43:38Z</time>
      </trkpt>
      <trkpt lat="51.157730799168348" lon="5.067460695281625">
        <ele>29.460000000000001</ele>
        <time>2022-04-30T14:43:54Z</time>
      </trkpt>
      <trkpt lat="51.157697523012757" lon="5.067376121878624">
        <ele>29.940000000000001</ele>
        <time>2022-04-30T14:44:05Z</time>
      </trkpt>
      <trkpt lat="51.157697271555662" lon="5.067356256768107">
        <ele>29.940000000000001</ele>
        <time>2022-04-30T14:44:06Z</time>
      </trkpt>
      <trkpt lat="51.157690482214093" lon="5.067271767184138">
        <ele>29.460000000000001</ele>
        <time>2022-04-30T14:44:11Z</time>
      </trkpt>
      <trkpt lat="51.157684698700905" lon="5.067248549312353">
        <ele>31.379999999999999</ele>
        <time>2022-04-30T14:44:12Z</time>
      </trkpt>
      <trkpt lat="51.157580344006419" lon="5.066739097237587">
        <ele>30.899999999999999</ele>
        <time>2022-04-30T14:44:25Z</time>
      </trkpt>
      <trkpt lat="51.157424189150333" lon="5.066009620204568">
        <ele>31.379999999999999</ele>
        <time>2022-04-30T14:44:37Z</time>
      </trkpt>
      <trkpt lat="51.157365432009101" lon="5.06517369300127">
        <ele>30.899999999999999</ele>
        <time>2022-04-30T14:44:49Z</time>
      </trkpt>
      <trkpt lat="51.15733316168189" lon="5.064313039183617">
        <ele>29.460000000000001</ele>
        <time>2022-04-30T14:45:01Z</time>
      </trkpt>
      <trkpt lat="51.157313631847501" lon="5.063703088089824">
        <ele>29.460000000000001</ele>
        <time>2022-04-30T14:45:12Z</time>
      </trkpt>
      <trkpt lat="51.157325031235814" lon="5.062817540019751">
        <ele>28.5</ele>
        <time>2022-04-30T14:45:28Z</time>
      </trkpt>
      <trkpt lat="51.157325953245163" lon="5.062584187835455">
        <ele>27.050000000000001</ele>
        <time>2022-04-30T14:45:37Z</time>
      </trkpt>
      <trkpt lat="51.15733316168189" lon="5.062422752380371">
        <ele>28.5</ele>
        <time>2022-04-30T14:45:51Z</time>
      </trkpt>
      <trkpt lat="51.157330144196749" lon="5.06225461140275">
        <ele>28.98</ele>
        <time>2022-04-30T14:46:07Z</time>
      </trkpt>
      <trkpt lat="51.157327629625797" lon="5.062223514541984">
        <ele>27.050000000000001</ele>
        <time>2022-04-30T14:46:08Z</time>
      </trkpt>
      <trkpt lat="51.157337184995413" lon="5.061599062755704">
        <ele>28.02</ele>
        <time>2022-04-30T14:46:20Z</time>
      </trkpt>
      <trkpt lat="51.15722956135869" lon="5.060849720612168">
        <ele>27.050000000000001</ele>
        <time>2022-04-30T14:46:31Z</time>
      </trkpt>
      <trkpt lat="51.157227717339993" lon="5.060787023976445">
        <ele>27.530000000000001</ele>
        <time>2022-04-30T14:46:32Z</time>
      </trkpt>
      <trkpt lat="51.157213887199759" lon="5.060681579634547">
        <ele>27.050000000000001</ele>
        <time>2022-04-30T14:46:42Z</time>
      </trkpt>
      <trkpt lat="51.157174911350012" lon="5.060583427548409">
        <ele>26.57</ele>
        <time>2022-04-30T14:46:55Z</time>
      </trkpt>
      <trkpt lat="51.157177425920963" lon="5.060566663742065">
        <ele>26.57</ele>
        <time>2022-04-30T14:46:56Z</time>
      </trkpt>
      <trkpt lat="51.157178180292249" lon="5.06054051220417">
        <ele>26.57</ele>
        <time>2022-04-30T14:46:57Z</time>
      </trkpt>
      <trkpt lat="51.157176671549678" lon="5.060501284897327">
        <ele>26.57</ele>
        <time>2022-04-30T14:46:58Z</time>
      </trkpt>
      <trkpt lat="51.157041806727648" lon="5.059660747647286">
        <ele>26.09</ele>
        <time>2022-04-30T14:47:11Z</time>
      </trkpt>
      <trkpt lat="51.156922616064548" lon="5.058865640312433">
        <ele>26.57</ele>
        <time>2022-04-30T14:47:25Z</time>
      </trkpt>
      <trkpt lat="51.156863607466221" lon="5.058809565380216">
        <ele>25.609999999999999</ele>
        <time>2022-04-30T14:47:35Z</time>
      </trkpt>
      <trkpt lat="51.156470160931349" lon="5.058844098821282">
        <ele>26.57</ele>
        <time>2022-04-30T14:47:48Z</time>
      </trkpt>
      <trkpt lat="51.1561359744519" lon="5.058775031939149">
        <ele>25.609999999999999</ele>
        <time>2022-04-30T14:48:04Z</time>
      </trkpt>
      <trkpt lat="51.155925756320357" lon="5.057976823300123">
        <ele>26.09</ele>
        <time>2022-04-30T14:48:16Z</time>
      </trkpt>
      <trkpt lat="51.155658960342407" lon="5.057687731459737">
        <ele>26.57</ele>
        <time>2022-04-30T14:48:23Z</time>
      </trkpt>
      <trkpt lat="51.155359894037247" lon="5.057545322924852">
        <ele>26.09</ele>
        <time>2022-04-30T14:48:24Z</time>
      </trkpt>
      <trkpt lat="51.155365258455276" lon="5.056824730709195">
        <ele>22.73</ele>
        <time>2022-04-30T14:49:59Z</time>
      </trkpt>
      <trkpt lat="51.155435331165791" lon="5.056747030466795">
        <ele>22.73</ele>
        <time>2022-04-30T14:50:00Z</time>
      </trkpt>
      <trkpt lat="51.15535176359117" lon="5.056716855615377">
        <ele>23.210000000000001</ele>
        <time>2022-04-30T14:50:08Z</time>
      </trkpt>
      <trkpt lat="51.155329300090671" lon="5.056515354663134">
        <ele>22.73</ele>
        <time>2022-04-30T14:50:09Z</time>
      </trkpt>
      <trkpt lat="51.1553312279284" lon="5.056482749059796">
        <ele>23.210000000000001</ele>
        <time>2022-04-30T14:50:10Z</time>
      </trkpt>
      <trkpt lat="51.155332988128066" lon="5.056456262245774">
        <ele>23.210000000000001</ele>
        <time>2022-04-30T14:50:11Z</time>
      </trkpt>
      <trkpt lat="51.155332485213876" lon="5.056429440155625">
        <ele>22.73</ele>
        <time>2022-04-30T14:50:12Z</time>
      </trkpt>
      <trkpt lat="51.155328210443258" lon="5.056392811238766">
        <ele>22.73</ele>
        <time>2022-04-30T14:50:13Z</time>
      </trkpt>
      <trkpt lat="51.15532192401588" lon="5.05589609965682">
        <ele>22.73</ele>
        <time>2022-04-30T14:50:33Z</time>
      </trkpt>
      <trkpt lat="51.155297784134746" lon="5.055562919005752">
        <ele>22.73</ele>
        <time>2022-04-30T14:50:50Z</time>
      </trkpt>
      <trkpt lat="51.155290994793177" lon="5.054848697036505">
        <ele>24.649999999999999</ele>
        <time>2022-04-30T14:51:19Z</time>
      </trkpt>
      <trkpt lat="51.155302813276649" lon="5.054597575217485">
        <ele>25.129999999999999</ele>
        <time>2022-04-30T14:51:30Z</time>
      </trkpt>
      <trkpt lat="51.155303232371807" lon="5.054571591317654">
        <ele>25.129999999999999</ele>
        <time>2022-04-30T14:51:31Z</time>
      </trkpt>
      <trkpt lat="51.155293509364128" lon="5.054200356826186">
        <ele>25.129999999999999</ele>
        <time>2022-04-30T14:51:47Z</time>
      </trkpt>
      <trkpt lat="51.155287055298686" lon="5.05399483256042">
        <ele>22.73</ele>
        <time>2022-04-30T14:51:56Z</time>
      </trkpt>
      <trkpt lat="51.155287474393845" lon="5.053974380716682">
        <ele>24.170000000000002</ele>
        <time>2022-04-30T14:51:57Z</time>
      </trkpt>
      <trkpt lat="51.15534002892673" lon="5.053934818133712">
        <ele>24.170000000000002</ele>
        <time>2022-04-30T14:52:02Z</time>
      </trkpt>
      <trkpt lat="51.155453352257609" lon="5.053941188380122">
        <ele>24.170000000000002</ele>
        <time>2022-04-30T14:52:08Z</time>
      </trkpt>
      <trkpt lat="51.155574386939406" lon="5.053917048498988">
        <ele>26.09</ele>
        <time>2022-04-30T14:52:12Z</time>
      </trkpt>
      <trkpt lat="51.155782677233219" lon="5.053913192823529">
        <ele>28.02</ele>
        <time>2022-04-30T14:52:23Z</time>
      </trkpt>
      <trkpt lat="51.156036900356412" lon="5.053907576948404">
        <ele>28.02</ele>
        <time>2022-04-30T14:52:40Z</time>
      </trkpt>
      <trkpt lat="51.156262625008821" lon="5.0539147015661">
        <ele>27.050000000000001</ele>
        <time>2022-04-30T14:52:56Z</time>
      </trkpt>
      <trkpt lat="51.156361280009151" lon="5.053922412917018">
        <ele>27.530000000000001</ele>
        <time>2022-04-30T14:53:03Z</time>
      </trkpt>
      <trkpt lat="51.156373266130686" lon="5.05394252948463">
        <ele>28.5</ele>
        <time>2022-04-30T14:53:04Z</time>
      </trkpt>
      <trkpt lat="51.156416600570083" lon="5.0540442019701">
        <ele>26.09</ele>
        <time>2022-04-30T14:53:24Z</time>
      </trkpt>
      <trkpt lat="51.156475944444537" lon="5.054070102050901">
        <ele>28.02</ele>
        <time>2022-04-30T14:53:25Z</time>
      </trkpt>
      <trkpt lat="51.156489355489612" lon="5.05424696020782">
        <ele>28.02</ele>
        <time>2022-04-30T14:53:26Z</time>
      </trkpt>
      <trkpt lat="51.156470496207476" lon="5.054341927170754">
        <ele>28.5</ele>
        <time>2022-04-30T14:53:30Z</time>
      </trkpt>
      <trkpt lat="51.156484661623836" lon="5.05452792160213">
        <ele>29.940000000000001</ele>
        <time>2022-04-30T14:53:35Z</time>
      </trkpt>
      <trkpt lat="51.15657183341682" lon="5.054491627961397">
        <ele>30.420000000000002</ele>
        <time>2022-04-30T14:53:45Z</time>
      </trkpt>
      <trkpt lat="51.156580718234181" lon="5.0544741936028">
        <ele>30.420000000000002</ele>
        <time>2022-04-30T14:53:46Z</time>
      </trkpt>
      <trkpt lat="51.156596224755049" lon="5.054439408704639">
        <ele>30.420000000000002</ele>
        <time>2022-04-30T14:53:48Z</time>
      </trkpt>
      <trkpt lat="51.156655820086598" lon="5.054264897480607">
        <ele>31.379999999999999</ele>
        <time>2022-04-30T14:53:58Z</time>
      </trkpt>
      <trkpt lat="51.15672430023551" lon="5.053939847275615">
        <ele>30.899999999999999</ele>
        <time>2022-04-30T14:54:14Z</time>
      </trkpt>
      <trkpt lat="51.156886657699943" lon="5.053359819576144">
        <ele>31.379999999999999</ele>
        <time>2022-04-30T14:54:49Z</time>
      </trkpt>
      <trkpt lat="51.15710006095469" lon="5.052872160449624">
        <ele>30.899999999999999</ele>
        <time>2022-04-30T14:55:20Z</time>
      </trkpt>
      <trkpt lat="51.157205421477556" lon="5.052672754973173">
        <ele>30.420000000000002</ele>
        <time>2022-04-30T14:55:36Z</time>
      </trkpt>
      <trkpt lat="51.157253198325634" lon="5.052576782181859">
        <ele>30.420000000000002</ele>
        <time>2022-04-30T14:55:42Z</time>
      </trkpt>
      <trkpt lat="51.157264430075884" lon="5.052539315074682">
        <ele>30.899999999999999</ele>
        <time>2022-04-30T14:55:44Z</time>
      </trkpt>
      <trkpt lat="51.157303405925632" lon="5.052421046420932">
        <ele>31.379999999999999</ele>
        <time>2022-04-30T14:55:49Z</time>
      </trkpt>
      <trkpt lat="51.157308854162693" lon="5.052399672567844">
        <ele>31.379999999999999</ele>
        <time>2022-04-30T14:55:50Z</time>
      </trkpt>
      <trkpt lat="51.157313380390406" lon="5.052380226552486">
        <ele>31.859999999999999</ele>
        <time>2022-04-30T14:55:51Z</time>
      </trkpt>
      <trkpt lat="51.157320085912943" lon="5.052362037822604">
        <ele>31.859999999999999</ele>
        <time>2022-04-30T14:55:52Z</time>
      </trkpt>
      <trkpt lat="51.157327881082892" lon="5.052345441654325">
        <ele>31.859999999999999</ele>
        <time>2022-04-30T14:55:53Z</time>
      </trkpt>
      <trkpt lat="51.157485879957676" lon="5.052126925438643">
        <ele>33.780000000000001</ele>
        <time>2022-04-30T14:56:10Z</time>
      </trkpt>
      <trkpt lat="51.157653518021107" lon="5.052043609321117">
        <ele>33.299999999999997</ele>
        <time>2022-04-30T14:56:24Z</time>
      </trkpt>
      <trkpt lat="51.157804140821099" lon="5.051865661516786">
        <ele>32.82</ele>
        <time>2022-04-30T14:56:38Z</time>
      </trkpt>
      <trkpt lat="51.157920733094215" lon="5.05164597183466">
        <ele>31.859999999999999</ele>
        <time>2022-04-30T14:56:54Z</time>
      </trkpt>
      <trkpt lat="51.157935569062829" lon="5.051612528041005">
        <ele>31.859999999999999</ele>
        <time>2022-04-30T14:56:56Z</time>
      </trkpt>
      <trkpt lat="51.157945124432445" lon="5.051591824740171">
        <ele>31.379999999999999</ele>
        <time>2022-04-30T14:56:57Z</time>
      </trkpt>
      <trkpt lat="51.15802357904613" lon="5.051333829760552">
        <ele>32.340000000000003</ele>
        <time>2022-04-30T14:57:12Z</time>
      </trkpt>
      <trkpt lat="51.158032882958651" lon="5.051285130903125">
        <ele>31.379999999999999</ele>
        <time>2022-04-30T14:57:15Z</time>
      </trkpt>
      <trkpt lat="51.158070936799049" lon="5.051113553345203">
        <ele>30.420000000000002</ele>
        <time>2022-04-30T14:57:25Z</time>
      </trkpt>
      <trkpt lat="51.158069428056479" lon="5.051085306331515">
        <ele>31.379999999999999</ele>
        <time>2022-04-30T14:57:27Z</time>
      </trkpt>
      <trkpt lat="51.158171771094203" lon="5.050807446241379">
        <ele>29.460000000000001</ele>
        <time>2022-04-30T14:57:43Z</time>
      </trkpt>
      <trkpt lat="51.158200772479177" lon="5.050750952214003">
        <ele>29.460000000000001</ele>
        <time>2022-04-30T14:57:47Z</time>
      </trkpt>
      <trkpt lat="51.158216279000044" lon="5.050706528127194">
        <ele>28.98</ele>
        <time>2022-04-30T14:57:50Z</time>
      </trkpt>
      <trkpt lat="51.158312084153295" lon="5.050391871482134">
        <ele>27.530000000000001</ele>
        <time>2022-04-30T14:58:06Z</time>
      </trkpt>
      <trkpt lat="51.158345025032759" lon="5.050134882330895">
        <ele>27.050000000000001</ele>
        <time>2022-04-30T14:58:20Z</time>
      </trkpt>
      <trkpt lat="51.158321388065815" lon="5.049901697784662">
        <ele>26.57</ele>
        <time>2022-04-30T14:58:32Z</time>
      </trkpt>
      <trkpt lat="51.158311078324914" lon="5.049886526539922">
        <ele>25.129999999999999</ele>
        <time>2022-04-30T14:58:33Z</time>
      </trkpt>
      <trkpt lat="51.158281909301877" lon="5.049847885966301">
        <ele>26.09</ele>
        <time>2022-04-30T14:58:36Z</time>
      </trkpt>
      <trkpt lat="51.15817504003644" lon="5.049580419436097">
        <ele>28.5</ele>
        <time>2022-04-30T14:58:51Z</time>
      </trkpt>
      <trkpt lat="51.158134806901217" lon="5.049381852149963">
        <ele>26.09</ele>
        <time>2022-04-30T14:59:00Z</time>
      </trkpt>
      <trkpt lat="51.158028356730938" lon="5.049000810831785">
        <ele>28.02</ele>
        <time>2022-04-30T14:59:22Z</time>
      </trkpt>
      <trkpt lat="51.157958284020424" lon="5.04872496239841">
        <ele>28.02</ele>
        <time>2022-04-30T14:59:35Z</time>
      </trkpt>
      <trkpt lat="51.157925594598055" lon="5.048521282151341">
        <ele>26.57</ele>
        <time>2022-04-30T14:59:46Z</time>
      </trkpt>
      <trkpt lat="51.157880248501897" lon="5.048342915251851">
        <ele>28.02</ele>
        <time>2022-04-30T15:00:01Z</time>
      </trkpt>
      <trkpt lat="51.157853761687875" lon="5.048271836712956">
        <ele>27.530000000000001</ele>
        <time>2022-04-30T15:00:14Z</time>
      </trkpt>
      <trkpt lat="51.157838758081198" lon="5.048248032107949">
        <ele>27.530000000000001</ele>
        <time>2022-04-30T15:00:15Z</time>
      </trkpt>
      <trkpt lat="51.157834315672517" lon="5.048069749027491">
        <ele>27.050000000000001</ele>
        <time>2022-04-30T15:00:28Z</time>
      </trkpt>
      <trkpt lat="51.157946884632111" lon="5.04802918061614">
        <ele>26.57</ele>
        <time>2022-04-30T15:00:42Z</time>
      </trkpt>
      <trkpt lat="51.158164646476507" lon="5.048012752085924">
        <ele>26.09</ele>
        <time>2022-04-30T15:00:58Z</time>
      </trkpt>
      <trkpt lat="51.158395735546947" lon="5.048017362132669">
        <ele>26.09</ele>
        <time>2022-04-30T15:01:14Z</time>
      </trkpt>
      <trkpt lat="51.158643588423729" lon="5.047970339655876">
        <ele>26.57</ele>
        <time>2022-04-30T15:01:31Z</time>
      </trkpt>
      <trkpt lat="51.158716510981321" lon="5.047937482595444">
        <ele>27.530000000000001</ele>
        <time>2022-04-30T15:01:37Z</time>
      </trkpt>
      <trkpt lat="51.158833857625723" lon="5.047892723232508">
        <ele>26.09</ele>
        <time>2022-04-30T15:01:48Z</time>
      </trkpt>
      <trkpt lat="51.158875096589327" lon="5.047889538109303">
        <ele>26.57</ele>
        <time>2022-04-30T15:01:51Z</time>
      </trkpt>
      <trkpt lat="51.159094953909516" lon="5.047818962484598">
        <ele>24.649999999999999</ele>
        <time>2022-04-30T15:02:06Z</time>
      </trkpt>
      <trkpt lat="51.159270806238055" lon="5.047806724905968">
        <ele>24.649999999999999</ele>
        <time>2022-04-30T15:02:20Z</time>
      </trkpt>
      <trkpt lat="51.159520586952567" lon="5.047852825373411">
        <ele>23.210000000000001</ele>
        <time>2022-04-30T15:02:36Z</time>
      </trkpt>
      <trkpt lat="51.159760309383273" lon="5.047818711027503">
        <ele>23.690000000000001</ele>
        <time>2022-04-30T15:02:50Z</time>
      </trkpt>
      <trkpt lat="51.159940604120493" lon="5.047750985249877">
        <ele>23.690000000000001</ele>
        <time>2022-04-30T15:03:04Z</time>
      </trkpt>
      <trkpt lat="51.160076139494777" lon="5.047735059633851">
        <ele>23.690000000000001</ele>
        <time>2022-04-30T15:03:17Z</time>
      </trkpt>
      <trkpt lat="51.160241765901446" lon="5.047745704650879">
        <ele>23.690000000000001</ele>
        <time>2022-04-30T15:03:30Z</time>
      </trkpt>
      <trkpt lat="51.160367578268051" lon="5.047722654417157">
        <ele>22.73</ele>
        <time>2022-04-30T15:03:41Z</time>
      </trkpt>
      <trkpt lat="51.160504203289747" lon="5.047805216163397">
        <ele>22.73</ele>
        <time>2022-04-30T15:03:49Z</time>
      </trkpt>
      <trkpt lat="51.1605239007622" lon="5.047820387408137">
        <ele>22.73</ele>
        <time>2022-04-30T15:03:50Z</time>
      </trkpt>
      <trkpt lat="51.160544855520129" lon="5.047830864787102">
        <ele>22.73</ele>
        <time>2022-04-30T15:03:51Z</time>
      </trkpt>
      <trkpt lat="51.160798408091068" lon="5.047907894477248">
        <ele>22.73</ele>
        <time>2022-04-30T15:04:15Z</time>
      </trkpt>
      <trkpt lat="51.160838808864355" lon="5.047916527837515">
        <ele>23.210000000000001</ele>
        <time>2022-04-30T15:04:16Z</time>
      </trkpt>
      <trkpt lat="51.161132594570518" lon="5.047739585861564">
        <ele>23.210000000000001</ele>
        <time>2022-04-30T15:04:17Z</time>
      </trkpt>
      <trkpt lat="51.161606842651963" lon="5.047705136239529">
        <ele>22.73</ele>
        <time>2022-04-30T15:04:18Z</time>
      </trkpt>
      <trkpt lat="51.161456638947129" lon="5.04817963577807">
        <ele>27.530000000000001</ele>
        <time>2022-04-30T15:05:10Z</time>
      </trkpt>
    </trkseg>
  </trk>

</gpx>